UAL875 KMCO-LIMC
Flight info
| Callsign | UAL875 |
|---|---|
| Flight time | 9h 10m |
| Altitude | 35000 |
| Route | FATHE4 VIYAP Q87 JROSS Q135 RAPZZ PRONI PUNGO PHITZ DWSEN KW54A PREPI KB63C MONTK VITOL NANSO N55B RAFIN 4550N 4740N 4730N 4720N 4715N SEPAL UN470 LAPEX GALOF PECNO VALKU TIS MEBAK GIPNO BALSI GIGUS MEDAM LAPRI MOGBO TOP M135 ASTIG |
| Aircraft | B772/H-SDE2E3FGHIJ5LORVWXY/LB1D1 |
Departure
| Time | 2026-04-25 13:07 |
|---|---|
| Airport | Orlando International Airport (KMCO) |
Arrival
| Time | 2026-04-25 22:18 |
|---|---|
| Airport | Milan Malpensa International Airport (LIMC) |
| Time | Latitude | Longitude | Altitude | Speed | Heading |
|---|---|---|---|---|---|
| 2026-04-25 11:34 | 28.42649 | -81.31319 | 106 ft | 0 kts | 13° |
| 2026-04-25 11:46 | 28.42629 | -81.31324 | 105 ft | 4 kts | 5° |
| 2026-04-25 11:46 | 28.42602 | -81.31324 | 105 ft | 4 kts | 347° |
| 2026-04-25 11:47 | 28.42579 | -81.31314 | 105 ft | 4 kts | 322° |
| 2026-04-25 11:47 | 28.42563 | -81.31295 | 103 ft | 4 kts | 289° |
| 2026-04-25 11:47 | 28.42560 | -81.31270 | 104 ft | 3 kts | 258° |
| 2026-04-25 11:47 | 28.42561 | -81.31267 | 102 ft | 0 kts | 257° |
| 2026-04-25 11:56 | 28.42560 | -81.31268 | 106 ft | 0 kts | 257° |
| 2026-04-25 11:56 | 28.42555 | -81.31296 | 106 ft | 9 kts | 257° |
| 2026-04-25 11:56 | 28.42540 | -81.31367 | 106 ft | 9 kts | 257° |
| 2026-04-25 11:56 | 28.42526 | -81.31439 | 108 ft | 9 kts | 257° |
| 2026-04-25 11:57 | 28.42513 | -81.31509 | 106 ft | 7 kts | 258° |
| 2026-04-25 11:57 | 28.42499 | -81.31564 | 106 ft | 7 kts | 246° |
| 2026-04-25 11:57 | 28.42477 | -81.31602 | 107 ft | 0 kts | 229° |
| 2026-04-25 11:58 | 28.42471 | -81.31609 | 107 ft | 8 kts | 227° |
| 2026-04-25 11:58 | 28.42408 | -81.31655 | 105 ft | 10 kts | 199° |
| 2026-04-25 11:59 | 28.42353 | -81.31620 | 103 ft | 10 kts | 104° |
| 2026-04-25 11:59 | 28.42350 | -81.31532 | 102 ft | 15 kts | 90° |
| 2026-04-25 11:59 | 28.42352 | -81.31399 | 100 ft | 17 kts | 89° |
| 2026-04-25 12:00 | 28.42334 | -81.31130 | 99 ft | 17 kts | 100° |
| 2026-04-25 12:00 | 28.42319 | -81.31016 | 97 ft | 8 kts | 94° |
| 2026-04-25 12:00 | 28.42323 | -81.30874 | 97 ft | 14 kts | 85° |
| 2026-04-25 12:01 | 28.42332 | -81.30753 | 110 ft | 17 kts | 85° |
| 2026-04-25 12:01 | 28.42343 | -81.30605 | 110 ft | 19 kts | 86° |
| 2026-04-25 12:01 | 28.42352 | -81.30464 | 107 ft | 19 kts | 86° |
| 2026-04-25 12:01 | 28.42360 | -81.30301 | 105 ft | 21 kts | 88° |
| 2026-04-25 12:02 | 28.42361 | -81.30130 | 105 ft | 14 kts | 90° |
| 2026-04-25 12:02 | 28.42362 | -81.30021 | 105 ft | 14 kts | 89° |
| 2026-04-25 12:02 | 28.42362 | -81.29913 | 103 ft | 14 kts | 90° |
| 2026-04-25 12:03 | 28.42353 | -81.29819 | 104 ft | 9 kts | 121° |
| 2026-04-25 12:03 | 28.42295 | -81.29795 | 103 ft | 9 kts | 175° |
| 2026-04-25 12:03 | 28.42232 | -81.29793 | 104 ft | 9 kts | 179° |
| 2026-04-25 12:03 | 28.42184 | -81.29774 | 104 ft | 4 kts | 134° |
| 2026-04-25 12:04 | 28.42179 | -81.29754 | 102 ft | 0 kts | 99° |
| 2026-04-25 12:09 | 28.42179 | -81.29753 | 101 ft | 1 kts | 99° |
| 2026-04-25 12:09 | 28.42160 | -81.29714 | 102 ft | 7 kts | 136° |
| 2026-04-25 12:09 | 28.42111 | -81.29699 | 102 ft | 7 kts | 174° |
| 2026-04-25 12:10 | 28.42076 | -81.29697 | 103 ft | 7 kts | 178° |
| 2026-04-25 12:10 | 28.42005 | -81.29696 | 105 ft | 8 kts | 179° |
| 2026-04-25 12:10 | 28.41951 | -81.29696 | 104 ft | 8 kts | 180° |
| 2026-04-25 12:10 | 28.41914 | -81.29695 | 104 ft | 8 kts | 180° |
| 2026-04-25 12:11 | 28.41869 | -81.29695 | 104 ft | 0 kts | 179° |
| 2026-04-25 12:54 | 28.41819 | -81.29701 | 101 ft | 9 kts | 203° |
| 2026-04-25 12:54 | 28.41801 | -81.29765 | 103 ft | 9 kts | 297° |
| 2026-04-25 12:54 | 28.41861 | -81.29787 | 105 ft | 9 kts | 355° |
| 2026-04-25 12:54 | 28.41926 | -81.29788 | 103 ft | 9 kts | 360° |
| 2026-04-25 12:55 | 28.41991 | -81.29789 | 103 ft | 9 kts | 359° |
| 2026-04-25 12:55 | 28.42026 | -81.29790 | 103 ft | 7 kts | 359° |
| 2026-04-25 12:55 | 28.42093 | -81.29791 | 103 ft | 7 kts | 359° |
| 2026-04-25 12:55 | 28.42141 | -81.29791 | 103 ft | 6 kts | 360° |
| 2026-04-25 12:56 | 28.42158 | -81.29791 | 105 ft | 0 kts | 359° |
| 2026-04-25 12:56 | 28.42164 | -81.29791 | 104 ft | 5 kts | 359° |
| 2026-04-25 12:56 | 28.42213 | -81.29792 | 104 ft | 7 kts | 359° |
| 2026-04-25 12:57 | 28.42261 | -81.29777 | 102 ft | 7 kts | 36° |
| 2026-04-25 12:57 | 28.42281 | -81.29725 | 100 ft | 7 kts | 79° |
| 2026-04-25 12:57 | 28.42282 | -81.29710 | 100 ft | 0 kts | 85° |
| 2026-04-25 12:59 | 28.42284 | -81.29663 | 99 ft | 13 kts | 89° |
| 2026-04-25 12:59 | 28.42283 | -81.29562 | 102 ft | 13 kts | 91° |
| 2026-04-25 12:59 | 28.42284 | -81.29461 | 109 ft | 13 kts | 89° |
| 2026-04-25 13:00 | 28.42285 | -81.29360 | 111 ft | 13 kts | 89° |
| 2026-04-25 13:00 | 28.42286 | -81.29293 | 108 ft | 13 kts | 90° |
| 2026-04-25 13:00 | 28.42289 | -81.29158 | 110 ft | 13 kts | 84° |
| 2026-04-25 13:00 | 28.42308 | -81.29054 | 110 ft | 17 kts | 74° |
| 2026-04-25 13:01 | 28.42351 | -81.28914 | 111 ft | 18 kts | 70° |
| 2026-04-25 13:01 | 28.42394 | -81.28779 | 109 ft | 18 kts | 71° |
| 2026-04-25 13:01 | 28.42435 | -81.28642 | 111 ft | 18 kts | 71° |
| 2026-04-25 13:01 | 28.42476 | -81.28506 | 109 ft | 18 kts | 71° |
| 2026-04-25 13:02 | 28.42533 | -81.28380 | 108 ft | 18 kts | 34° |
| 2026-04-25 13:02 | 28.42657 | -81.28366 | 107 ft | 20 kts | 0° |
| 2026-04-25 13:02 | 28.42816 | -81.28367 | 104 ft | 23 kts | 359° |
| 2026-04-25 13:02 | 28.42974 | -81.28368 | 102 ft | 23 kts | 360° |
| 2026-04-25 13:03 | 28.43132 | -81.28371 | 102 ft | 23 kts | 359° |
| 2026-04-25 13:03 | 28.43291 | -81.28373 | 99 ft | 23 kts | 360° |
| 2026-04-25 13:03 | 28.43449 | -81.28373 | 101 ft | 23 kts | 360° |
| 2026-04-25 13:03 | 28.43605 | -81.28376 | 105 ft | 23 kts | 359° |
| 2026-04-25 13:04 | 28.43762 | -81.28378 | 106 ft | 23 kts | 360° |
| 2026-04-25 13:04 | 28.43907 | -81.28378 | 108 ft | 20 kts | 360° |
| 2026-04-25 13:04 | 28.44043 | -81.28380 | 109 ft | 20 kts | 359° |
| 2026-04-25 13:04 | 28.44167 | -81.28383 | 107 ft | 15 kts | 358° |
| 2026-04-25 13:05 | 28.44249 | -81.28385 | 106 ft | 10 kts | 359° |
| 2026-04-25 13:05 | 28.44318 | -81.28383 | 106 ft | 9 kts | 9° |
| 2026-04-25 13:05 | 28.44353 | -81.28348 | 106 ft | 7 kts | 68° |
| 2026-04-25 13:05 | 28.44349 | -81.28297 | 104 ft | 7 kts | 114° |
| 2026-04-25 13:06 | 28.44312 | -81.28266 | 105 ft | 7 kts | 160° |
| 2026-04-25 13:06 | 28.44267 | -81.28257 | 108 ft | 7 kts | 175° |
| 2026-04-25 13:06 | 28.44244 | -81.28257 | 108 ft | 0 kts | 178° |
| 2026-04-25 13:06 | 28.44154 | -81.28256 | 107 ft | 34 kts | 179° |
| 2026-04-25 13:07 | 28.43642 | -81.28249 | 105 ft | 113 kts | 179° |
| 2026-04-25 13:07 | 28.42606 | -81.28235 | 143 ft | 177 kts | 179° |
| 2026-04-25 13:07 | 28.41368 | -81.28217 | 1072 ft | 177 kts | 179° |
| 2026-04-25 13:07 | 28.40145 | -81.27880 | 1868 ft | 193 kts | 148° |
| 2026-04-25 13:08 | 28.39212 | -81.26690 | 2299 ft | 217 kts | 115° |
| 2026-04-25 13:08 | 28.38959 | -81.24928 | 2610 ft | 236 kts | 86° |
| 2026-04-25 13:08 | 28.39138 | -81.23049 | 3001 ft | 254 kts | 83° |
| 2026-04-25 13:08 | 28.39400 | -81.21031 | 3521 ft | 262 kts | 72° |
| 2026-04-25 13:09 | 28.40410 | -81.19319 | 4148 ft | 268 kts | 36° |
| 2026-04-25 13:09 | 28.42155 | -81.18581 | 4956 ft | 268 kts | 0° |
| 2026-04-25 13:09 | 28.43931 | -81.18998 | 5662 ft | 267 kts | 341° |
| 2026-04-25 13:09 | 28.45745 | -81.19596 | 6267 ft | 273 kts | 346° |
| 2026-04-25 13:10 | 28.47620 | -81.20088 | 7025 ft | 275 kts | 347° |
| 2026-04-25 13:10 | 28.49486 | -81.20546 | 7860 ft | 276 kts | 347° |
| 2026-04-25 13:10 | 28.51379 | -81.21005 | 8544 ft | 281 kts | 347° |
| 2026-04-25 13:10 | 28.53297 | -81.21466 | 9318 ft | 282 kts | 347° |
| 2026-04-25 13:11 | 28.55220 | -81.21927 | 10085 ft | 283 kts | 346° |
| 2026-04-25 13:11 | 28.57186 | -81.22399 | 10504 ft | 298 kts | 346° |
| 2026-04-25 13:11 | 28.59299 | -81.22907 | 10677 ft | 321 kts | 347° |
| 2026-04-25 13:11 | 28.61553 | -81.23448 | 10857 ft | 345 kts | 347° |
| 2026-04-25 13:12 | 28.63986 | -81.24030 | 11168 ft | 363 kts | 347° |
| 2026-04-25 13:12 | 28.66497 | -81.24630 | 11816 ft | 372 kts | 347° |
| 2026-04-25 13:12 | 28.69051 | -81.25239 | 12592 ft | 378 kts | 347° |
| 2026-04-25 13:12 | 28.70764 | -81.25648 | 13169 ft | 380 kts | 347° |
| 2026-04-25 13:13 | 28.74236 | -81.26478 | 14251 ft | 384 kts | 347° |
| 2026-04-25 13:13 | 28.76849 | -81.27103 | 14948 ft | 388 kts | 346° |
| 2026-04-25 13:13 | 28.79513 | -81.27742 | 15637 ft | 392 kts | 346° |
| 2026-04-25 13:13 | 28.82188 | -81.28385 | 16321 ft | 396 kts | 346° |
| 2026-04-25 13:14 | 28.84924 | -81.28944 | 16992 ft | 402 kts | 351° |
| 2026-04-25 13:14 | 28.87730 | -81.29205 | 17649 ft | 406 kts | 354° |
| 2026-04-25 13:14 | 28.90553 | -81.29414 | 18290 ft | 411 kts | 354° |
| 2026-04-25 13:14 | 28.93428 | -81.29638 | 18885 ft | 414 kts | 354° |
| 2026-04-25 13:15 | 28.96308 | -81.29878 | 19481 ft | 417 kts | 354° |
| 2026-04-25 13:15 | 28.99198 | -81.30126 | 20067 ft | 419 kts | 353° |
| 2026-04-25 13:15 | 29.02131 | -81.30428 | 20633 ft | 422 kts | 352° |
| 2026-04-25 13:15 | 29.05061 | -81.30768 | 21178 ft | 425 kts | 352° |
| 2026-04-25 13:16 | 29.08014 | -81.31109 | 21713 ft | 429 kts | 352° |
| 2026-04-25 13:16 | 29.11002 | -81.31446 | 22252 ft | 432 kts | 353° |
| 2026-04-25 13:16 | 29.14014 | -81.31702 | 22784 ft | 436 kts | 355° |
| 2026-04-25 13:16 | 29.17068 | -81.31882 | 23291 ft | 440 kts | 355° |
| 2026-04-25 13:17 | 29.20129 | -81.32036 | 23764 ft | 443 kts | 355° |
| 2026-04-25 13:17 | 29.23229 | -81.32192 | 24200 ft | 446 kts | 356° |
| 2026-04-25 13:17 | 29.26337 | -81.32358 | 24635 ft | 448 kts | 355° |
| 2026-04-25 13:17 | 29.29458 | -81.32535 | 25078 ft | 451 kts | 356° |
| 2026-04-25 13:18 | 29.32602 | -81.32720 | 25498 ft | 453 kts | 355° |
| 2026-04-25 13:18 | 29.35762 | -81.32910 | 25913 ft | 456 kts | 356° |
| 2026-04-25 13:18 | 29.38927 | -81.33101 | 26304 ft | 458 kts | 356° |
| 2026-04-25 13:18 | 29.42123 | -81.33295 | 26682 ft | 460 kts | 356° |
| 2026-04-25 13:19 | 29.45329 | -81.33489 | 27054 ft | 463 kts | 356° |
| 2026-04-25 13:19 | 29.48517 | -81.33682 | 27410 ft | 465 kts | 356° |
| 2026-04-25 13:19 | 29.51748 | -81.33877 | 27761 ft | 467 kts | 356° |
| 2026-04-25 13:19 | 29.52850 | -81.33944 | 27882 ft | 468 kts | 356° |
| 2026-04-25 13:20 | 29.58266 | -81.34271 | 28421 ft | 471 kts | 356° |
| 2026-04-25 13:20 | 29.61593 | -81.34472 | 28736 ft | 473 kts | 356° |
| 2026-04-25 13:20 | 29.64847 | -81.34668 | 29011 ft | 475 kts | 356° |
| 2026-04-25 13:20 | 29.68146 | -81.34862 | 29277 ft | 476 kts | 357° |
| 2026-04-25 13:21 | 29.71458 | -81.35051 | 29533 ft | 478 kts | 357° |
| 2026-04-25 13:21 | 29.74784 | -81.35239 | 29794 ft | 479 kts | 357° |
| 2026-04-25 13:21 | 29.78129 | -81.35429 | 30072 ft | 480 kts | 357° |
| 2026-04-25 13:21 | 29.81457 | -81.35618 | 30362 ft | 479 kts | 357° |
| 2026-04-25 13:22 | 29.84784 | -81.35809 | 30666 ft | 478 kts | 357° |
| 2026-04-25 13:22 | 29.88096 | -81.35999 | 30943 ft | 477 kts | 357° |
| 2026-04-25 13:22 | 29.91413 | -81.36189 | 31200 ft | 477 kts | 357° |
| 2026-04-25 13:23 | 29.98038 | -81.36570 | 31746 ft | 476 kts | 357° |
| 2026-04-25 13:23 | 30.01240 | -81.36755 | 31996 ft | 476 kts | 357° |
| 2026-04-25 13:23 | 30.04547 | -81.36945 | 32266 ft | 475 kts | 357° |
| 2026-04-25 13:23 | 30.07858 | -81.37136 | 32524 ft | 475 kts | 357° |
| 2026-04-25 13:24 | 30.11157 | -81.37327 | 32788 ft | 474 kts | 357° |
| 2026-04-25 13:24 | 30.14450 | -81.37517 | 33049 ft | 474 kts | 357° |
| 2026-04-25 13:24 | 30.17736 | -81.37707 | 33319 ft | 473 kts | 357° |
| 2026-04-25 13:24 | 30.21028 | -81.37897 | 33602 ft | 472 kts | 357° |
| 2026-04-25 13:25 | 30.24306 | -81.38087 | 33890 ft | 472 kts | 357° |
| 2026-04-25 13:25 | 30.27581 | -81.38277 | 34137 ft | 471 kts | 357° |
| 2026-04-25 13:25 | 30.30849 | -81.38466 | 34408 ft | 469 kts | 357° |
| 2026-04-25 13:25 | 30.34092 | -81.38654 | 34674 ft | 467 kts | 356° |
| 2026-04-25 13:26 | 30.37348 | -81.38843 | 34881 ft | 467 kts | 356° |
| 2026-04-25 13:26 | 30.43852 | -81.39221 | 34958 ft | 467 kts | 356° |
| 2026-04-25 13:27 | 30.50108 | -81.39574 | 34963 ft | 466 kts | 357° |
| 2026-04-25 13:27 | 30.56585 | -81.39915 | 34984 ft | 465 kts | 357° |
| 2026-04-25 13:28 | 30.63042 | -81.40256 | 34984 ft | 464 kts | 357° |
| 2026-04-25 13:28 | 30.69488 | -81.40599 | 34984 ft | 464 kts | 357° |
| 2026-04-25 13:29 | 30.75928 | -81.40944 | 34980 ft | 464 kts | 357° |
| 2026-04-25 13:29 | 30.82385 | -81.41291 | 34975 ft | 464 kts | 357° |
| 2026-04-25 13:30 | 30.92070 | -81.41811 | 34960 ft | 464 kts | 356° |
| 2026-04-25 13:31 | 31.01751 | -81.42333 | 34956 ft | 464 kts | 356° |
| 2026-04-25 13:31 | 31.08207 | -81.42681 | 34957 ft | 465 kts | 357° |
| 2026-04-25 13:32 | 31.14674 | -81.43030 | 34952 ft | 465 kts | 356° |
| 2026-04-25 13:32 | 31.21144 | -81.43320 | 34963 ft | 465 kts | 1° |
| 2026-04-25 13:33 | 31.27526 | -81.42097 | 34971 ft | 467 kts | 15° |
| 2026-04-25 13:33 | 31.33553 | -81.39232 | 34966 ft | 469 kts | 24° |
| 2026-04-25 13:34 | 31.39434 | -81.35938 | 34961 ft | 470 kts | 24° |
| 2026-04-25 13:34 | 31.45352 | -81.32664 | 34962 ft | 470 kts | 23° |
| 2026-04-25 13:35 | 31.51274 | -81.29435 | 34960 ft | 470 kts | 23° |
| 2026-04-25 13:35 | 31.56206 | -81.26752 | 34950 ft | 470 kts | 23° |
| 2026-04-25 13:36 | 31.62142 | -81.23513 | 34947 ft | 470 kts | 23° |
| 2026-04-25 13:36 | 31.68075 | -81.20270 | 34941 ft | 470 kts | 23° |
| 2026-04-25 13:37 | 31.74002 | -81.17028 | 34928 ft | 470 kts | 24° |
| 2026-04-25 13:37 | 31.79943 | -81.13773 | 34925 ft | 470 kts | 24° |
| 2026-04-25 13:38 | 31.85875 | -81.10517 | 34920 ft | 470 kts | 24° |
| 2026-04-25 13:38 | 31.91800 | -81.07261 | 34918 ft | 470 kts | 24° |
| 2026-04-25 13:39 | 31.97722 | -81.04002 | 34916 ft | 470 kts | 24° |
| 2026-04-25 13:39 | 32.03647 | -81.00723 | 34917 ft | 470 kts | 24° |
| 2026-04-25 13:40 | 32.09532 | -80.97429 | 34919 ft | 471 kts | 24° |
| 2026-04-25 13:40 | 32.15484 | -80.94089 | 34940 ft | 471 kts | 24° |
| 2026-04-25 13:41 | 32.21364 | -80.90789 | 34947 ft | 471 kts | 24° |
| 2026-04-25 13:41 | 32.27285 | -80.87464 | 34950 ft | 471 kts | 24° |
| 2026-04-25 13:42 | 32.33245 | -80.84111 | 34948 ft | 472 kts | 24° |
| 2026-04-25 13:42 | 32.39170 | -80.80774 | 34940 ft | 472 kts | 24° |
| 2026-04-25 13:43 | 32.45105 | -80.77426 | 34946 ft | 472 kts | 24° |
| 2026-04-25 13:43 | 32.51032 | -80.74077 | 34947 ft | 473 kts | 24° |
| 2026-04-25 13:44 | 32.56975 | -80.70714 | 34944 ft | 473 kts | 24° |
| 2026-04-25 13:44 | 32.62875 | -80.67370 | 34941 ft | 473 kts | 24° |
| 2026-04-25 13:45 | 32.68737 | -80.63812 | 34936 ft | 474 kts | 32° |
| 2026-04-25 13:45 | 32.73921 | -80.58944 | 34950 ft | 477 kts | 43° |
| 2026-04-25 13:46 | 32.78366 | -80.53070 | 34943 ft | 478 kts | 48° |
| 2026-04-25 13:46 | 32.82707 | -80.47074 | 34951 ft | 478 kts | 48° |
| 2026-04-25 13:47 | 32.87066 | -80.41102 | 34945 ft | 479 kts | 47° |
| 2026-04-25 13:47 | 32.91460 | -80.35124 | 34930 ft | 479 kts | 47° |
| 2026-04-25 13:48 | 32.95822 | -80.29197 | 34922 ft | 479 kts | 47° |
| 2026-04-25 13:48 | 33.00215 | -80.23217 | 34922 ft | 480 kts | 47° |
| 2026-04-25 13:49 | 33.04610 | -80.17220 | 34928 ft | 480 kts | 48° |
| 2026-04-25 13:49 | 33.08997 | -80.11222 | 34942 ft | 480 kts | 47° |
| 2026-04-25 13:50 | 33.13392 | -80.05207 | 34944 ft | 481 kts | 48° |
| 2026-04-25 13:50 | 33.17781 | -79.99185 | 34938 ft | 481 kts | 48° |
| 2026-04-25 13:51 | 33.22165 | -79.93162 | 34945 ft | 480 kts | 48° |
| 2026-04-25 13:51 | 33.26536 | -79.87149 | 34938 ft | 479 kts | 48° |
| 2026-04-25 13:52 | 33.30893 | -79.81140 | 34938 ft | 479 kts | 48° |
| 2026-04-25 13:52 | 33.35254 | -79.75120 | 34933 ft | 478 kts | 48° |
| 2026-04-25 13:53 | 33.39604 | -79.69105 | 34935 ft | 478 kts | 48° |
| 2026-04-25 13:53 | 33.43950 | -79.63086 | 34928 ft | 478 kts | 48° |
| 2026-04-25 13:54 | 33.48299 | -79.57051 | 34933 ft | 478 kts | 48° |
| 2026-04-25 13:54 | 33.52647 | -79.51007 | 34938 ft | 478 kts | 48° |
| 2026-04-25 13:55 | 33.56986 | -79.44966 | 34935 ft | 479 kts | 48° |
| 2026-04-25 13:55 | 33.61327 | -79.38911 | 34936 ft | 479 kts | 48° |
| 2026-04-25 13:56 | 33.65674 | -79.32838 | 34943 ft | 480 kts | 48° |
| 2026-04-25 13:56 | 33.70016 | -79.26764 | 34937 ft | 480 kts | 48° |
| 2026-04-25 13:57 | 33.74364 | -79.20673 | 34946 ft | 480 kts | 48° |
| 2026-04-25 13:57 | 33.78714 | -79.14568 | 34950 ft | 481 kts | 48° |
| 2026-04-25 13:58 | 33.83057 | -79.08464 | 34948 ft | 481 kts | 48° |
| 2026-04-25 13:58 | 33.87402 | -79.02345 | 34949 ft | 481 kts | 49° |
| 2026-04-25 13:59 | 33.91749 | -78.96211 | 34946 ft | 481 kts | 49° |
| 2026-04-25 13:59 | 33.96094 | -78.90070 | 34925 ft | 481 kts | 49° |
| 2026-04-25 14:00 | 34.00437 | -78.83924 | 34931 ft | 482 kts | 49° |
| 2026-04-25 14:00 | 34.04764 | -78.77787 | 34945 ft | 481 kts | 49° |
| 2026-04-25 14:01 | 34.09111 | -78.71611 | 34929 ft | 482 kts | 49° |
| 2026-04-25 14:01 | 34.13440 | -78.65450 | 34932 ft | 482 kts | 49° |
| 2026-04-25 14:02 | 34.17775 | -78.59269 | 34949 ft | 482 kts | 49° |
| 2026-04-25 14:02 | 34.22101 | -78.53094 | 34933 ft | 482 kts | 49° |
| 2026-04-25 14:03 | 34.25981 | -78.46485 | 34951 ft | 483 kts | 59° |
| 2026-04-25 14:03 | 34.28906 | -78.39167 | 34935 ft | 484 kts | 64° |
| 2026-04-25 14:04 | 34.31691 | -78.31734 | 34931 ft | 485 kts | 64° |
| 2026-04-25 14:04 | 34.34499 | -78.24324 | 34920 ft | 485 kts | 64° |
| 2026-04-25 14:05 | 34.37334 | -78.16901 | 34924 ft | 486 kts | 64° |
| 2026-04-25 14:05 | 34.40167 | -78.09486 | 34937 ft | 486 kts | 64° |
| 2026-04-25 14:06 | 34.42998 | -78.02053 | 34933 ft | 486 kts | 64° |
| 2026-04-25 14:06 | 34.45826 | -77.94605 | 34929 ft | 486 kts | 64° |
| 2026-04-25 14:07 | 34.48645 | -77.87165 | 34938 ft | 486 kts | 64° |
| 2026-04-25 14:07 | 34.51464 | -77.79705 | 34925 ft | 486 kts | 64° |
| 2026-04-25 14:08 | 34.54298 | -77.72265 | 34930 ft | 485 kts | 61° |
| 2026-04-25 14:08 | 34.58010 | -77.65470 | 34935 ft | 483 kts | 49° |
| 2026-04-25 14:09 | 34.62689 | -77.59659 | 34931 ft | 481 kts | 41° |
| 2026-04-25 14:09 | 34.67576 | -77.54162 | 34937 ft | 481 kts | 41° |
| 2026-04-25 14:10 | 34.72478 | -77.48612 | 34938 ft | 482 kts | 42° |
| 2026-04-25 14:10 | 34.77366 | -77.43007 | 35020 ft | 484 kts | 42° |
| 2026-04-25 14:10 | 34.79801 | -77.40199 | 35244 ft | 483 kts | 42° |
| 2026-04-25 14:11 | 34.82271 | -77.37347 | 35489 ft | 482 kts | 42° |
| 2026-04-25 14:11 | 34.87118 | -77.31747 | 35413 ft | 482 kts | 42° |
| 2026-04-25 14:12 | 34.91966 | -77.26137 | 35345 ft | 478 kts | 42° |
| 2026-04-25 14:12 | 34.94379 | -77.23344 | 35192 ft | 478 kts | 42° |
| 2026-04-25 14:12 | 34.96788 | -77.20551 | 35039 ft | 478 kts | 42° |
| 2026-04-25 14:13 | 35.01594 | -77.14971 | 34957 ft | 477 kts | 42° |
| 2026-04-25 14:13 | 35.06399 | -77.09385 | 34939 ft | 477 kts | 42° |
| 2026-04-25 14:14 | 35.11197 | -77.03798 | 34934 ft | 476 kts | 42° |
| 2026-04-25 14:14 | 35.15990 | -76.98208 | 34933 ft | 476 kts | 42° |
| 2026-04-25 14:15 | 35.20783 | -76.92606 | 34927 ft | 476 kts | 42° |
| 2026-04-25 14:15 | 35.25569 | -76.87003 | 34929 ft | 477 kts | 42° |
| 2026-04-25 14:16 | 35.30349 | -76.81399 | 34920 ft | 477 kts | 42° |
| 2026-04-25 14:16 | 35.34946 | -76.75996 | 34903 ft | 478 kts | 42° |
| 2026-04-25 14:17 | 35.39746 | -76.70350 | 34907 ft | 478 kts | 42° |
| 2026-04-25 14:17 | 35.43732 | -76.65650 | 34908 ft | 479 kts | 42° |
| 2026-04-25 14:18 | 35.48525 | -76.59981 | 34909 ft | 480 kts | 41° |
| 2026-04-25 14:18 | 35.54107 | -76.53351 | 34900 ft | 480 kts | 41° |
| 2026-04-25 14:19 | 35.58900 | -76.47635 | 34904 ft | 481 kts | 41° |
| 2026-04-25 14:19 | 35.63118 | -76.43138 | 34890 ft | 477 kts | 32° |
| 2026-04-25 14:20 | 35.68557 | -76.38542 | 34896 ft | 477 kts | 31° |
| 2026-04-25 14:20 | 35.74066 | -76.33892 | 34900 ft | 477 kts | 32° |
| 2026-04-25 14:21 | 35.79515 | -76.29222 | 34897 ft | 478 kts | 32° |
| 2026-04-25 14:21 | 35.84928 | -76.24544 | 34898 ft | 478 kts | 32° |
| 2026-04-25 14:22 | 35.90374 | -76.19828 | 34903 ft | 479 kts | 32° |
| 2026-04-25 14:22 | 35.95825 | -76.15101 | 34893 ft | 479 kts | 32° |
| 2026-04-25 14:23 | 36.01277 | -76.10368 | 34894 ft | 479 kts | 32° |
| 2026-04-25 14:23 | 36.06724 | -76.05631 | 34894 ft | 479 kts | 32° |
| 2026-04-25 14:24 | 36.12163 | -76.00892 | 34897 ft | 478 kts | 32° |
| 2026-04-25 14:24 | 36.17605 | -75.96142 | 34897 ft | 478 kts | 32° |
| 2026-04-25 14:25 | 36.23042 | -75.91389 | 34903 ft | 478 kts | 32° |
| 2026-04-25 14:25 | 36.28525 | -75.86749 | 34907 ft | 475 kts | 27° |
| 2026-04-25 14:26 | 36.34261 | -75.82697 | 34908 ft | 474 kts | 25° |
| 2026-04-25 14:26 | 36.39985 | -75.78730 | 34904 ft | 475 kts | 25° |
| 2026-04-25 14:27 | 36.45744 | -75.74695 | 34900 ft | 475 kts | 25° |
| 2026-04-25 14:27 | 36.51479 | -75.70640 | 34896 ft | 475 kts | 25° |
| 2026-04-25 14:28 | 36.57222 | -75.66564 | 34890 ft | 474 kts | 25° |
| 2026-04-25 14:28 | 36.62946 | -75.62495 | 34892 ft | 474 kts | 25° |
| 2026-04-25 14:29 | 36.68680 | -75.58414 | 34891 ft | 474 kts | 25° |
| 2026-04-25 14:29 | 36.74404 | -75.54333 | 34890 ft | 474 kts | 25° |
| 2026-04-25 14:30 | 36.80129 | -75.50245 | 34893 ft | 474 kts | 25° |
| 2026-04-25 14:30 | 36.88715 | -75.44099 | 34896 ft | 474 kts | 25° |
| 2026-04-25 14:31 | 36.94432 | -75.39998 | 34900 ft | 474 kts | 25° |
| 2026-04-25 14:31 | 37.00156 | -75.35886 | 34904 ft | 474 kts | 25° |
| 2026-04-25 14:32 | 37.05871 | -75.31773 | 34902 ft | 474 kts | 25° |
| 2026-04-25 14:32 | 37.11595 | -75.27645 | 34909 ft | 474 kts | 25° |
| 2026-04-25 14:33 | 37.17310 | -75.23517 | 34907 ft | 474 kts | 25° |
| 2026-04-25 14:33 | 37.23024 | -75.19382 | 34911 ft | 474 kts | 25° |
| 2026-04-25 14:34 | 37.28740 | -75.15238 | 34917 ft | 474 kts | 25° |
| 2026-04-25 14:34 | 37.34418 | -75.11115 | 34919 ft | 474 kts | 25° |
| 2026-04-25 14:35 | 37.40159 | -75.06939 | 34926 ft | 474 kts | 25° |
| 2026-04-25 14:35 | 37.36592 | -75.08987 | 34922 ft | 0 kts | 25° |
| 2026-04-25 14:35 | 37.39020 | -75.07412 | 34801 ft | 470 kts | 24° |
| 2026-04-25 14:36 | 37.41875 | -75.05339 | 34597 ft | 473 kts | 29° |
| 2026-04-25 14:36 | 37.44288 | -75.02577 | 34787 ft | 482 kts | 46° |
| 2026-04-25 14:36 | 37.48914 | -74.96627 | 34885 ft | 473 kts | 30° |
| 2026-04-25 14:37 | 37.54492 | -74.92361 | 34861 ft | 468 kts | 21° |
| 2026-04-25 14:37 | 37.60359 | -74.88694 | 34932 ft | 474 kts | 21° |
| 2026-04-25 14:38 | 37.66361 | -74.84977 | 34951 ft | 480 kts | 21° |
| 2026-04-25 14:38 | 37.72378 | -74.81234 | 34945 ft | 481 kts | 21° |
| 2026-04-25 14:39 | 37.78293 | -74.77534 | 34943 ft | 475 kts | 20° |
| 2026-04-25 14:39 | 37.84209 | -74.73831 | 34955 ft | 474 kts | 20° |
| 2026-04-25 14:40 | 37.90124 | -74.70125 | 34956 ft | 474 kts | 20° |
| 2026-04-25 14:40 | 37.96041 | -74.66410 | 34961 ft | 475 kts | 20° |
| 2026-04-25 14:41 | 38.01965 | -74.62684 | 34967 ft | 475 kts | 20° |
| 2026-04-25 14:41 | 38.07888 | -74.58951 | 34972 ft | 476 kts | 20° |
| 2026-04-25 14:42 | 38.12810 | -74.55844 | 34979 ft | 476 kts | 20° |
| 2026-04-25 14:42 | 38.19757 | -74.51450 | 34981 ft | 477 kts | 20° |
| 2026-04-25 14:43 | 38.25691 | -74.47689 | 34987 ft | 477 kts | 20° |
| 2026-04-25 14:43 | 38.31641 | -74.43912 | 34991 ft | 478 kts | 20° |
| 2026-04-25 14:44 | 38.37543 | -74.40158 | 35004 ft | 478 kts | 20° |
| 2026-04-25 14:44 | 38.43494 | -74.36366 | 34996 ft | 478 kts | 20° |
| 2026-04-25 14:45 | 38.49446 | -74.32566 | 35004 ft | 478 kts | 20° |
| 2026-04-25 14:45 | 38.55392 | -74.28762 | 35009 ft | 478 kts | 20° |
| 2026-04-25 14:46 | 38.61332 | -74.24956 | 35011 ft | 477 kts | 20° |
| 2026-04-25 14:46 | 38.67273 | -74.21142 | 35016 ft | 477 kts | 20° |
| 2026-04-25 14:47 | 38.72244 | -74.17945 | 35014 ft | 477 kts | 20° |
| 2026-04-25 14:47 | 38.79132 | -74.13507 | 35024 ft | 477 kts | 20° |
| 2026-04-25 14:48 | 38.85061 | -74.09679 | 35027 ft | 477 kts | 19° |
| 2026-04-25 14:48 | 38.90981 | -74.05850 | 35030 ft | 476 kts | 19° |
| 2026-04-25 14:49 | 38.96894 | -74.02018 | 35034 ft | 476 kts | 19° |
| 2026-04-25 14:49 | 39.02672 | -73.97755 | 35042 ft | 484 kts | 27° |
| 2026-04-25 14:50 | 39.08185 | -73.92762 | 35050 ft | 485 kts | 28° |
| 2026-04-25 14:50 | 39.13687 | -73.87719 | 35049 ft | 485 kts | 28° |
| 2026-04-25 14:51 | 39.19201 | -73.82711 | 35055 ft | 485 kts | 27° |
| 2026-04-25 14:51 | 39.24720 | -73.77719 | 35059 ft | 484 kts | 27° |
| 2026-04-25 14:52 | 39.30241 | -73.72722 | 35060 ft | 485 kts | 27° |
| 2026-04-25 14:52 | 39.34828 | -73.68560 | 35064 ft | 485 kts | 27° |
| 2026-04-25 14:53 | 39.41283 | -73.62689 | 35075 ft | 485 kts | 27° |
| 2026-04-25 14:53 | 39.46800 | -73.57661 | 35072 ft | 485 kts | 27° |
| 2026-04-25 14:54 | 39.52316 | -73.52623 | 35076 ft | 485 kts | 27° |
| 2026-04-25 14:54 | 39.57790 | -73.47613 | 35081 ft | 484 kts | 27° |
| 2026-04-25 14:55 | 39.63284 | -73.42576 | 35088 ft | 484 kts | 27° |
| 2026-04-25 14:55 | 39.68777 | -73.37529 | 35081 ft | 483 kts | 27° |
| 2026-04-25 14:56 | 39.74266 | -73.32476 | 35092 ft | 483 kts | 27° |
| 2026-04-25 14:56 | 39.79649 | -73.27201 | 35086 ft | 490 kts | 34° |
| 2026-04-25 14:57 | 39.84329 | -73.20646 | 35095 ft | 502 kts | 46° |
| 2026-04-25 14:57 | 39.88414 | -73.13258 | 35094 ft | 503 kts | 47° |
| 2026-04-25 14:58 | 39.92447 | -73.05815 | 35093 ft | 502 kts | 47° |
| 2026-04-25 14:58 | 39.96504 | -72.98409 | 35095 ft | 501 kts | 47° |
| 2026-04-25 14:59 | 40.00565 | -72.91043 | 35109 ft | 500 kts | 47° |
| 2026-04-25 14:59 | 40.04625 | -72.83675 | 35098 ft | 500 kts | 47° |
| 2026-04-25 15:00 | 40.08671 | -72.76307 | 35109 ft | 499 kts | 47° |
| 2026-04-25 15:00 | 40.12711 | -72.68932 | 35105 ft | 499 kts | 47° |
| 2026-04-25 15:01 | 40.16734 | -72.61567 | 35111 ft | 499 kts | 47° |
| 2026-04-25 15:01 | 40.20766 | -72.54171 | 35124 ft | 498 kts | 47° |
| 2026-04-25 15:02 | 40.24783 | -72.46783 | 35126 ft | 498 kts | 47° |
| 2026-04-25 15:02 | 40.28120 | -72.40632 | 35126 ft | 498 kts | 47° |
| 2026-04-25 15:03 | 40.32127 | -72.33231 | 35119 ft | 498 kts | 46° |
| 2026-04-25 15:03 | 40.36126 | -72.25829 | 35127 ft | 497 kts | 47° |
| 2026-04-25 15:04 | 40.40121 | -72.18414 | 35131 ft | 497 kts | 47° |
| 2026-04-25 15:04 | 40.44111 | -72.10992 | 35134 ft | 497 kts | 47° |
| 2026-04-25 15:05 | 40.48089 | -72.03574 | 35136 ft | 498 kts | 47° |
| 2026-04-25 15:06 | 40.52956 | -71.91289 | 35151 ft | 512 kts | 60° |
| 2026-04-25 15:06 | 40.55671 | -71.82627 | 35191 ft | 513 kts | 60° |
| 2026-04-25 15:06 | 40.57033 | -71.78299 | 35466 ft | 511 kts | 60° |
| 2026-04-25 15:07 | 40.58395 | -71.74002 | 35828 ft | 507 kts | 60° |
| 2026-04-25 15:07 | 40.59757 | -71.69735 | 36179 ft | 504 kts | 60° |
| 2026-04-25 15:07 | 40.61115 | -71.65497 | 36475 ft | 502 kts | 60° |
| 2026-04-25 15:07 | 40.62471 | -71.61274 | 36709 ft | 501 kts | 60° |
| 2026-04-25 15:08 | 40.63830 | -71.57040 | 36909 ft | 501 kts | 60° |
| 2026-04-25 15:08 | 40.65184 | -71.52810 | 37062 ft | 501 kts | 60° |
| 2026-04-25 15:08 | 40.66537 | -71.48573 | 37117 ft | 502 kts | 60° |
| 2026-04-25 15:09 | 40.69234 | -71.40098 | 37146 ft | 502 kts | 60° |
| 2026-04-25 15:09 | 40.73263 | -71.27380 | 37146 ft | 501 kts | 60° |
| 2026-04-25 15:10 | 40.75922 | -71.18955 | 37146 ft | 501 kts | 60° |
| 2026-04-25 15:11 | 40.79925 | -71.06225 | 37147 ft | 500 kts | 60° |
| 2026-04-25 15:11 | 40.82487 | -70.97666 | 37145 ft | 503 kts | 63° |
| 2026-04-25 15:12 | 40.85902 | -70.84524 | 37152 ft | 505 kts | 63° |
| 2026-04-25 15:12 | 40.87784 | -70.77169 | 37153 ft | 505 kts | 63° |
| 2026-04-25 15:13 | 40.91551 | -70.62572 | 37143 ft | 504 kts | 63° |
| 2026-04-25 15:14 | 40.93818 | -70.53793 | 37141 ft | 504 kts | 63° |
| 2026-04-25 15:14 | 40.96076 | -70.45012 | 37144 ft | 504 kts | 63° |
| 2026-04-25 15:15 | 40.98327 | -70.36225 | 37146 ft | 504 kts | 63° |
| 2026-04-25 15:15 | 41.00570 | -70.27431 | 37151 ft | 504 kts | 63° |
| 2026-04-25 15:16 | 41.02806 | -70.18634 | 37151 ft | 504 kts | 63° |
| 2026-04-25 15:16 | 41.06135 | -70.05473 | 37150 ft | 504 kts | 62° |
| 2026-04-25 15:17 | 41.09457 | -69.92271 | 37149 ft | 503 kts | 62° |
| 2026-04-25 15:18 | 41.11663 | -69.83462 | 37146 ft | 503 kts | 62° |
| 2026-04-25 15:18 | 41.14958 | -69.70246 | 37144 ft | 503 kts | 62° |
| 2026-04-25 15:19 | 41.16791 | -69.62862 | 37143 ft | 503 kts | 62° |
| 2026-04-25 15:19 | 41.19325 | -69.52611 | 37145 ft | 503 kts | 62° |
| 2026-04-25 15:20 | 41.21497 | -69.43793 | 37146 ft | 502 kts | 62° |
| 2026-04-25 15:20 | 41.23663 | -69.34967 | 37133 ft | 502 kts | 62° |
| 2026-04-25 15:21 | 41.25819 | -69.26145 | 37144 ft | 502 kts | 63° |
| 2026-04-25 15:21 | 41.27970 | -69.17310 | 37142 ft | 502 kts | 63° |
| 2026-04-25 15:22 | 41.30114 | -69.08472 | 37145 ft | 502 kts | 63° |
| 2026-04-25 15:22 | 41.32252 | -68.99624 | 37142 ft | 502 kts | 63° |
| 2026-04-25 15:23 | 41.34380 | -68.90784 | 37132 ft | 502 kts | 63° |
| 2026-04-25 15:23 | 41.36498 | -68.81950 | 37141 ft | 501 kts | 63° |
| 2026-04-25 15:24 | 41.38612 | -68.73101 | 37137 ft | 501 kts | 63° |
| 2026-04-25 15:24 | 41.40362 | -68.65749 | 37132 ft | 501 kts | 63° |
| 2026-04-25 15:25 | 41.42811 | -68.55420 | 37124 ft | 500 kts | 63° |
| 2026-04-25 15:25 | 41.44899 | -68.46575 | 37122 ft | 500 kts | 63° |
| 2026-04-25 15:26 | 41.46977 | -68.37744 | 37123 ft | 499 kts | 63° |
| 2026-04-25 15:26 | 41.49049 | -68.28901 | 37122 ft | 499 kts | 63° |
| 2026-04-25 15:27 | 41.51113 | -68.20060 | 37118 ft | 499 kts | 63° |
| 2026-04-25 15:28 | 41.54194 | -68.06786 | 37118 ft | 499 kts | 63° |
| 2026-04-25 15:28 | 41.56240 | -67.97933 | 37117 ft | 500 kts | 63° |
| 2026-04-25 15:29 | 41.58281 | -67.89068 | 37114 ft | 500 kts | 64° |
| 2026-04-25 15:29 | 41.60321 | -67.80174 | 37112 ft | 500 kts | 64° |
| 2026-04-25 15:30 | 41.62352 | -67.71280 | 37109 ft | 501 kts | 64° |
| 2026-04-25 15:30 | 41.64380 | -67.62363 | 37100 ft | 501 kts | 64° |
| 2026-04-25 15:31 | 41.66390 | -67.53488 | 37103 ft | 502 kts | 64° |
| 2026-04-25 15:31 | 41.68406 | -67.44551 | 37103 ft | 502 kts | 64° |
| 2026-04-25 15:32 | 41.70416 | -67.35604 | 37100 ft | 503 kts | 65° |
| 2026-04-25 15:32 | 41.72419 | -67.26652 | 37096 ft | 503 kts | 65° |
| 2026-04-25 15:33 | 41.75419 | -67.13176 | 37088 ft | 503 kts | 65° |
| 2026-04-25 15:33 | 41.77415 | -67.04169 | 37089 ft | 504 kts | 65° |
| 2026-04-25 15:34 | 41.79666 | -66.95349 | 37078 ft | 497 kts | 59° |
| 2026-04-25 15:34 | 41.81429 | -66.89621 | 37079 ft | 496 kts | 59° |
| 2026-04-25 15:35 | 41.86293 | -66.74004 | 37078 ft | 497 kts | 59° |
| 2026-04-25 15:36 | 41.90221 | -66.61116 | 37079 ft | 497 kts | 60° |
| 2026-04-25 15:36 | 41.92821 | -66.52518 | 37072 ft | 497 kts | 60° |
| 2026-04-25 15:37 | 41.95415 | -66.43915 | 37068 ft | 497 kts | 60° |
| 2026-04-25 15:37 | 41.98006 | -66.35298 | 37064 ft | 497 kts | 61° |
| 2026-04-25 15:38 | 42.00590 | -66.26677 | 37049 ft | 497 kts | 61° |
| 2026-04-25 15:38 | 42.03165 | -66.18061 | 37053 ft | 496 kts | 61° |
| 2026-04-25 15:39 | 42.05726 | -66.09462 | 37050 ft | 496 kts | 61° |
| 2026-04-25 15:39 | 42.08284 | -66.00845 | 37047 ft | 495 kts | 62° |
| 2026-04-25 15:40 | 42.09972 | -65.95142 | 37043 ft | 495 kts | 62° |
| 2026-04-25 15:40 | 42.13372 | -65.83618 | 37041 ft | 494 kts | 62° |
| 2026-04-25 15:41 | 42.15902 | -65.75008 | 37040 ft | 494 kts | 62° |
| 2026-04-25 15:41 | 42.18409 | -65.66447 | 37028 ft | 494 kts | 62° |
| 2026-04-25 15:42 | 42.20927 | -65.57824 | 37029 ft | 494 kts | 62° |
| 2026-04-25 15:42 | 42.23436 | -65.49197 | 37022 ft | 494 kts | 63° |
| 2026-04-25 15:43 | 42.25939 | -65.40567 | 37024 ft | 494 kts | 63° |
| 2026-04-25 15:43 | 42.28434 | -65.31933 | 37022 ft | 493 kts | 63° |
| 2026-04-25 15:44 | 42.30924 | -65.23284 | 37014 ft | 493 kts | 63° |
| 2026-04-25 15:44 | 42.33404 | -65.14646 | 37008 ft | 493 kts | 63° |
| 2026-04-25 15:45 | 42.35873 | -65.06013 | 37005 ft | 493 kts | 63° |
| 2026-04-25 15:45 | 42.37520 | -65.00238 | 37005 ft | 492 kts | 63° |
| 2026-04-25 15:46 | 42.40395 | -64.90125 | 37001 ft | 492 kts | 64° |
| 2026-04-25 15:46 | 42.42829 | -64.81535 | 37000 ft | 492 kts | 64° |
| 2026-04-25 15:47 | 42.45271 | -64.72886 | 36993 ft | 492 kts | 64° |
| 2026-04-25 15:47 | 42.47709 | -64.64221 | 36991 ft | 492 kts | 64° |
| 2026-04-25 15:48 | 42.50138 | -64.55557 | 36989 ft | 492 kts | 64° |
| 2026-04-25 15:48 | 42.52564 | -64.46875 | 36985 ft | 493 kts | 64° |
| 2026-04-25 15:49 | 42.54984 | -64.38184 | 36983 ft | 493 kts | 65° |
| 2026-04-25 15:49 | 42.57398 | -64.29481 | 36978 ft | 493 kts | 65° |
| 2026-04-25 15:50 | 42.59806 | -64.20773 | 36973 ft | 493 kts | 65° |
| 2026-04-25 15:50 | 42.62208 | -64.12053 | 36979 ft | 493 kts | 65° |
| 2026-04-25 15:51 | 42.64198 | -64.04807 | 36964 ft | 493 kts | 65° |
| 2026-04-25 15:51 | 42.66990 | -63.94604 | 36962 ft | 492 kts | 65° |
| 2026-04-25 15:52 | 42.69367 | -63.85884 | 36959 ft | 492 kts | 65° |
| 2026-04-25 15:52 | 42.71734 | -63.77168 | 36956 ft | 491 kts | 66° |
| 2026-04-25 15:53 | 42.74088 | -63.68472 | 36954 ft | 490 kts | 66° |
| 2026-04-25 15:53 | 42.76435 | -63.59768 | 36951 ft | 489 kts | 66° |
| 2026-04-25 15:54 | 42.78364 | -63.52594 | 36949 ft | 488 kts | 66° |
| 2026-04-25 15:54 | 42.80703 | -63.43865 | 36939 ft | 487 kts | 66° |
| 2026-04-25 15:55 | 42.83017 | -63.35197 | 36940 ft | 486 kts | 66° |
| 2026-04-25 15:55 | 42.85319 | -63.26546 | 36933 ft | 486 kts | 66° |
| 2026-04-25 15:56 | 42.87615 | -63.17884 | 36928 ft | 485 kts | 66° |
| 2026-04-25 15:56 | 42.89900 | -63.09236 | 36921 ft | 485 kts | 66° |
| 2026-04-25 15:57 | 42.92162 | -63.00640 | 36920 ft | 485 kts | 66° |
| 2026-04-25 15:57 | 42.94433 | -62.91981 | 36919 ft | 485 kts | 66° |
| 2026-04-25 15:58 | 42.96697 | -62.83318 | 36909 ft | 485 kts | 66° |
| 2026-04-25 15:58 | 42.98955 | -62.74645 | 36907 ft | 485 kts | 66° |
| 2026-04-25 15:59 | 43.01210 | -62.65955 | 36897 ft | 485 kts | 67° |
| 2026-04-25 15:59 | 43.03458 | -62.57256 | 36889 ft | 485 kts | 67° |
| 2026-04-25 16:00 | 43.04958 | -62.51434 | 36903 ft | 486 kts | 67° |
| 2026-04-25 16:00 | 43.07937 | -62.39831 | 36885 ft | 486 kts | 67° |
| 2026-04-25 16:01 | 43.10167 | -62.31108 | 36884 ft | 486 kts | 67° |
| 2026-04-25 16:01 | 43.12394 | -62.22364 | 36880 ft | 486 kts | 67° |
| 2026-04-25 16:02 | 43.14615 | -62.13612 | 36875 ft | 487 kts | 67° |
| 2026-04-25 16:02 | 43.16829 | -62.04852 | 36871 ft | 487 kts | 67° |
| 2026-04-25 16:03 | 43.19036 | -61.96086 | 36865 ft | 487 kts | 68° |
| 2026-04-25 16:03 | 43.21238 | -61.87311 | 36855 ft | 487 kts | 68° |
| 2026-04-25 16:04 | 43.23429 | -61.78546 | 36851 ft | 485 kts | 68° |
| 2026-04-25 16:04 | 43.25608 | -61.69791 | 36859 ft | 485 kts | 68° |
| 2026-04-25 16:05 | 43.27782 | -61.61029 | 36847 ft | 484 kts | 68° |
| 2026-04-25 16:06 | 43.31023 | -61.47906 | 36837 ft | 484 kts | 68° |
| 2026-04-25 16:06 | 43.33164 | -61.39193 | 36829 ft | 484 kts | 68° |
| 2026-04-25 16:07 | 43.35314 | -61.30414 | 36832 ft | 485 kts | 68° |
| 2026-04-25 16:07 | 43.37457 | -61.21625 | 36822 ft | 485 kts | 68° |
| 2026-04-25 16:08 | 43.39596 | -61.12817 | 36823 ft | 486 kts | 68° |
| 2026-04-25 16:08 | 43.41731 | -61.03994 | 36813 ft | 487 kts | 68° |
| 2026-04-25 16:09 | 43.43863 | -60.95148 | 36811 ft | 487 kts | 68° |
| 2026-04-25 16:09 | 43.45995 | -60.86272 | 36801 ft | 488 kts | 69° |
| 2026-04-25 16:10 | 43.48118 | -60.77394 | 36806 ft | 489 kts | 69° |
| 2026-04-25 16:10 | 43.50235 | -60.68505 | 36796 ft | 489 kts | 69° |
| 2026-04-25 16:11 | 43.52351 | -60.59588 | 36797 ft | 489 kts | 69° |
| 2026-04-25 16:11 | 43.54460 | -60.50665 | 36792 ft | 490 kts | 69° |
| 2026-04-25 16:12 | 43.56559 | -60.41745 | 36779 ft | 490 kts | 69° |
| 2026-04-25 16:12 | 43.58652 | -60.32816 | 36777 ft | 489 kts | 69° |
| 2026-04-25 16:13 | 43.60725 | -60.23935 | 36777 ft | 489 kts | 69° |
| 2026-04-25 16:13 | 43.62802 | -60.15003 | 36768 ft | 489 kts | 69° |
| 2026-04-25 16:14 | 43.64875 | -60.06055 | 36767 ft | 489 kts | 69° |
| 2026-04-25 16:14 | 43.66939 | -59.97111 | 36758 ft | 489 kts | 69° |
| 2026-04-25 16:15 | 43.68995 | -59.88161 | 36764 ft | 489 kts | 70° |
| 2026-04-25 16:15 | 43.71044 | -59.79206 | 36745 ft | 489 kts | 70° |
| 2026-04-25 16:16 | 43.73086 | -59.70244 | 36744 ft | 489 kts | 70° |
| 2026-04-25 16:16 | 43.75119 | -59.61288 | 36735 ft | 488 kts | 70° |
| 2026-04-25 16:17 | 43.77144 | -59.52327 | 36735 ft | 488 kts | 70° |
| 2026-04-25 16:17 | 43.79163 | -59.43357 | 36723 ft | 488 kts | 70° |
| 2026-04-25 16:18 | 43.81175 | -59.34380 | 36721 ft | 488 kts | 70° |
| 2026-04-25 16:18 | 43.83178 | -59.25410 | 36716 ft | 488 kts | 70° |
| 2026-04-25 16:19 | 43.85176 | -59.16425 | 36714 ft | 488 kts | 70° |
| 2026-04-25 16:19 | 43.87169 | -59.07422 | 36708 ft | 488 kts | 70° |
| 2026-04-25 16:20 | 43.90144 | -58.93908 | 36687 ft | 489 kts | 71° |
| 2026-04-25 16:21 | 43.93104 | -58.80375 | 36687 ft | 489 kts | 71° |
| 2026-04-25 16:21 | 43.95070 | -58.71343 | 36686 ft | 489 kts | 71° |
| 2026-04-25 16:22 | 43.97032 | -58.62295 | 36681 ft | 490 kts | 71° |
| 2026-04-25 16:22 | 43.98972 | -58.53298 | 36674 ft | 490 kts | 71° |
| 2026-04-25 16:23 | 44.00920 | -58.44227 | 36673 ft | 490 kts | 71° |
| 2026-04-25 16:23 | 44.02873 | -58.35099 | 36668 ft | 490 kts | 71° |
| 2026-04-25 16:24 | 44.04797 | -58.26064 | 36666 ft | 490 kts | 71° |
| 2026-04-25 16:24 | 44.06738 | -58.16913 | 36658 ft | 490 kts | 71° |
| 2026-04-25 16:25 | 44.08646 | -58.07877 | 36655 ft | 490 kts | 71° |
| 2026-04-25 16:25 | 44.10558 | -57.98770 | 36650 ft | 491 kts | 71° |
| 2026-04-25 16:26 | 44.12466 | -57.89649 | 36648 ft | 491 kts | 71° |
| 2026-04-25 16:26 | 44.14369 | -57.80513 | 36638 ft | 491 kts | 71° |
| 2026-04-25 16:27 | 44.16265 | -57.71375 | 36633 ft | 492 kts | 71° |
| 2026-04-25 16:27 | 44.18155 | -57.62223 | 36633 ft | 492 kts | 71° |
| 2026-04-25 16:28 | 44.19733 | -57.54544 | 36622 ft | 492 kts | 71° |
| 2026-04-25 16:28 | 44.21921 | -57.43865 | 36621 ft | 493 kts | 72° |
| 2026-04-25 16:29 | 44.23791 | -57.34674 | 36615 ft | 493 kts | 72° |
| 2026-04-25 16:29 | 44.25353 | -57.26970 | 36609 ft | 493 kts | 72° |
| 2026-04-25 16:30 | 44.27214 | -57.17755 | 36605 ft | 493 kts | 72° |
| 2026-04-25 16:30 | 44.29069 | -57.08520 | 36600 ft | 494 kts | 72° |
| 2026-04-25 16:31 | 44.30914 | -56.99294 | 36598 ft | 494 kts | 72° |
| 2026-04-25 16:31 | 44.32743 | -56.90108 | 36590 ft | 494 kts | 73° |
| 2026-04-25 16:32 | 44.34576 | -56.80870 | 36584 ft | 494 kts | 73° |
| 2026-04-25 16:32 | 44.36402 | -56.71616 | 36579 ft | 494 kts | 73° |
| 2026-04-25 16:33 | 44.38219 | -56.62364 | 36577 ft | 493 kts | 73° |
| 2026-04-25 16:33 | 44.40024 | -56.53126 | 36566 ft | 493 kts | 73° |
| 2026-04-25 16:34 | 44.41824 | -56.43869 | 36569 ft | 493 kts | 73° |
| 2026-04-25 16:34 | 44.43617 | -56.34609 | 36555 ft | 493 kts | 73° |
| 2026-04-25 16:35 | 44.45401 | -56.25347 | 36555 ft | 493 kts | 73° |
| 2026-04-25 16:35 | 44.47180 | -56.16075 | 36548 ft | 493 kts | 74° |
| 2026-04-25 16:36 | 44.48919 | -56.06803 | 36543 ft | 493 kts | 76° |
| 2026-04-25 16:36 | 44.50070 | -55.97322 | 36542 ft | 493 kts | 81° |
| 2026-04-25 16:37 | 44.51069 | -55.87807 | 36536 ft | 494 kts | 81° |
| 2026-04-25 16:37 | 44.52076 | -55.78294 | 36527 ft | 494 kts | 81° |
| 2026-04-25 16:38 | 44.53103 | -55.68765 | 36528 ft | 495 kts | 81° |
| 2026-04-25 16:38 | 44.53619 | -55.63995 | 36691 ft | 495 kts | 81° |
| 2026-04-25 16:38 | 44.54134 | -55.59226 | 36894 ft | 495 kts | 81° |
| 2026-04-25 16:38 | 44.54646 | -55.54456 | 37084 ft | 495 kts | 81° |
| 2026-04-25 16:39 | 44.55157 | -55.49680 | 37264 ft | 495 kts | 81° |
| 2026-04-25 16:39 | 44.55665 | -55.44909 | 37407 ft | 495 kts | 81° |
| 2026-04-25 16:39 | 44.56171 | -55.40128 | 37456 ft | 496 kts | 81° |
| 2026-04-25 16:40 | 44.57174 | -55.30605 | 37496 ft | 498 kts | 81° |
| 2026-04-25 16:40 | 44.58179 | -55.20969 | 37502 ft | 500 kts | 82° |
| 2026-04-25 16:41 | 44.59182 | -55.11280 | 37496 ft | 502 kts | 82° |
| 2026-04-25 16:41 | 44.60670 | -54.96745 | 37482 ft | 501 kts | 82° |
| 2026-04-25 16:42 | 44.61650 | -54.87070 | 37475 ft | 500 kts | 82° |
| 2026-04-25 16:42 | 44.62619 | -54.77426 | 37473 ft | 500 kts | 82° |
| 2026-04-25 16:43 | 44.63580 | -54.67768 | 37463 ft | 498 kts | 83° |
| 2026-04-25 16:43 | 44.64531 | -54.58128 | 37460 ft | 498 kts | 83° |
| 2026-04-25 16:44 | 44.65468 | -54.48548 | 37441 ft | 489 kts | 83° |
| 2026-04-25 16:44 | 44.66386 | -54.39091 | 37457 ft | 491 kts | 83° |
| 2026-04-25 16:45 | 44.67300 | -54.29568 | 37447 ft | 492 kts | 83° |
| 2026-04-25 16:45 | 44.68207 | -54.20034 | 37456 ft | 492 kts | 83° |
| 2026-04-25 16:46 | 44.69107 | -54.10496 | 37425 ft | 492 kts | 83° |
| 2026-04-25 16:46 | 44.69850 | -54.02566 | 37435 ft | 493 kts | 83° |
| 2026-04-25 16:47 | 44.70889 | -53.91355 | 37428 ft | 497 kts | 84° |
| 2026-04-25 16:47 | 44.71770 | -53.81746 | 37425 ft | 500 kts | 84° |
| 2026-04-25 16:48 | 44.72651 | -53.72044 | 37410 ft | 501 kts | 84° |
| 2026-04-25 16:48 | 44.73533 | -53.62245 | 37407 ft | 501 kts | 84° |
| 2026-04-25 16:49 | 44.74393 | -53.52598 | 37396 ft | 500 kts | 84° |
| 2026-04-25 16:49 | 44.75246 | -53.42919 | 37379 ft | 497 kts | 81° |
| 2026-04-25 16:50 | 44.76090 | -53.33278 | 37399 ft | 495 kts | 81° |
| 2026-04-25 16:50 | 44.76923 | -53.23667 | 37390 ft | 496 kts | 81° |
| 2026-04-25 16:51 | 44.77749 | -53.14022 | 37380 ft | 496 kts | 81° |
| 2026-04-25 16:51 | 44.78429 | -53.06007 | 37383 ft | 497 kts | 82° |
| 2026-04-25 16:52 | 44.79379 | -52.94708 | 37373 ft | 497 kts | 82° |
| 2026-04-25 16:52 | 44.80184 | -52.85007 | 37373 ft | 498 kts | 82° |
| 2026-04-25 16:53 | 44.81374 | -52.70502 | 37366 ft | 499 kts | 82° |
| 2026-04-25 16:54 | 44.82160 | -52.60774 | 37361 ft | 499 kts | 82° |
| 2026-04-25 16:54 | 44.82934 | -52.51098 | 37360 ft | 498 kts | 82° |
| 2026-04-25 16:55 | 44.83704 | -52.41376 | 37348 ft | 499 kts | 83° |
| 2026-04-25 16:55 | 44.84462 | -52.31696 | 37350 ft | 499 kts | 83° |
| 2026-04-25 16:56 | 44.85212 | -52.22015 | 37337 ft | 499 kts | 83° |
| 2026-04-25 16:56 | 44.85960 | -52.12239 | 37343 ft | 501 kts | 83° |
| 2026-04-25 16:57 | 44.86701 | -52.02448 | 37334 ft | 503 kts | 83° |
| 2026-04-25 16:57 | 44.87427 | -51.92742 | 37333 ft | 500 kts | 83° |
| 2026-04-25 16:58 | 44.88151 | -51.82972 | 37329 ft | 500 kts | 83° |
| 2026-04-25 16:58 | 44.88862 | -51.73203 | 37322 ft | 502 kts | 83° |
| 2026-04-25 16:59 | 44.89559 | -51.63441 | 37320 ft | 502 kts | 84° |
| 2026-04-25 16:59 | 44.90252 | -51.53625 | 37313 ft | 502 kts | 84° |
| 2026-04-25 17:00 | 44.90933 | -51.43857 | 37312 ft | 501 kts | 84° |
| 2026-04-25 17:00 | 44.91610 | -51.34061 | 37302 ft | 501 kts | 84° |
| 2026-04-25 17:01 | 44.92276 | -51.24271 | 37309 ft | 502 kts | 84° |
| 2026-04-25 17:01 | 44.92933 | -51.14487 | 37297 ft | 500 kts | 84° |
| 2026-04-25 17:02 | 44.93580 | -51.04739 | 37298 ft | 500 kts | 84° |
| 2026-04-25 17:02 | 44.94227 | -50.94862 | 37305 ft | 510 kts | 84° |
| 2026-04-25 17:03 | 44.94873 | -50.84878 | 37291 ft | 511 kts | 85° |
| 2026-04-25 17:03 | 44.95506 | -50.74933 | 37292 ft | 507 kts | 85° |
| 2026-04-25 17:04 | 44.96127 | -50.65063 | 37286 ft | 504 kts | 85° |
| 2026-04-25 17:05 | 44.97288 | -50.46197 | 37289 ft | 504 kts | 85° |
| 2026-04-25 17:05 | 44.98179 | -50.31365 | 37296 ft | 507 kts | 85° |
| 2026-04-25 17:06 | 44.98763 | -50.21464 | 37286 ft | 507 kts | 85° |
| 2026-04-25 17:06 | 44.99338 | -50.11602 | 37281 ft | 506 kts | 86° |
| 2026-04-25 17:07 | 45.00067 | -50.01655 | 37280 ft | 507 kts | 80° |
| 2026-04-25 17:07 | 45.01864 | -49.92068 | 37285 ft | 510 kts | 70° |
| 2026-04-25 17:08 | 45.04268 | -49.82653 | 37275 ft | 509 kts | 70° |
| 2026-04-25 17:08 | 45.06689 | -49.73219 | 37277 ft | 510 kts | 70° |
| 2026-04-25 17:09 | 45.09066 | -49.63764 | 37277 ft | 510 kts | 71° |
| 2026-04-25 17:09 | 45.11414 | -49.54283 | 37273 ft | 510 kts | 71° |
| 2026-04-25 17:10 | 45.13751 | -49.44790 | 37269 ft | 509 kts | 71° |
| 2026-04-25 17:10 | 45.16077 | -49.35305 | 37285 ft | 511 kts | 71° |
| 2026-04-25 17:11 | 45.18400 | -49.25803 | 37272 ft | 511 kts | 71° |
| 2026-04-25 17:11 | 45.20724 | -49.16266 | 37270 ft | 510 kts | 71° |
| 2026-04-25 17:12 | 45.23034 | -49.06742 | 37277 ft | 511 kts | 71° |
| 2026-04-25 17:12 | 45.25341 | -48.97192 | 37270 ft | 512 kts | 72° |
| 2026-04-25 17:13 | 45.27255 | -48.89230 | 37283 ft | 512 kts | 72° |
| 2026-04-25 17:13 | 45.29936 | -48.78039 | 37286 ft | 513 kts | 72° |
| 2026-04-25 17:14 | 45.32200 | -48.68540 | 37291 ft | 510 kts | 72° |
| 2026-04-25 17:14 | 45.34477 | -48.58944 | 37284 ft | 513 kts | 72° |
| 2026-04-25 17:15 | 45.36745 | -48.49351 | 37291 ft | 511 kts | 72° |
| 2026-04-25 17:15 | 45.39002 | -48.39758 | 37301 ft | 513 kts | 72° |
| 2026-04-25 17:16 | 45.41253 | -48.30155 | 37299 ft | 512 kts | 73° |
| 2026-04-25 17:16 | 45.43505 | -48.20500 | 37308 ft | 512 kts | 73° |
| 2026-04-25 17:17 | 45.45740 | -48.10871 | 37312 ft | 513 kts | 73° |
| 2026-04-25 17:17 | 45.47971 | -48.01214 | 37315 ft | 514 kts | 73° |
| 2026-04-25 17:18 | 45.50194 | -47.91563 | 37316 ft | 512 kts | 73° |
| 2026-04-25 17:19 | 45.54453 | -47.72941 | 37323 ft | 515 kts | 74° |
| 2026-04-25 17:19 | 45.56652 | -47.63258 | 37321 ft | 510 kts | 74° |
| 2026-04-25 17:20 | 45.58839 | -47.53596 | 37343 ft | 514 kts | 74° |
| 2026-04-25 17:20 | 45.61041 | -47.43810 | 37349 ft | 520 kts | 74° |
| 2026-04-25 17:21 | 45.63256 | -47.33927 | 37353 ft | 525 kts | 74° |
| 2026-04-25 17:21 | 45.65475 | -47.23976 | 37355 ft | 527 kts | 74° |
| 2026-04-25 17:22 | 45.67321 | -47.15669 | 37359 ft | 528 kts | 74° |
| 2026-04-25 17:22 | 45.69911 | -47.03962 | 37364 ft | 529 kts | 75° |
| 2026-04-25 17:23 | 45.72121 | -46.93915 | 37373 ft | 529 kts | 75° |
| 2026-04-25 17:23 | 45.74318 | -46.83876 | 37372 ft | 527 kts | 75° |
| 2026-04-25 17:24 | 45.76486 | -46.73925 | 37379 ft | 527 kts | 75° |
| 2026-04-25 17:24 | 45.78659 | -46.63903 | 37385 ft | 526 kts | 75° |
| 2026-04-25 17:25 | 45.80821 | -46.53881 | 37389 ft | 525 kts | 75° |
| 2026-04-25 17:25 | 45.82967 | -46.43888 | 37394 ft | 524 kts | 75° |
| 2026-04-25 17:26 | 45.85094 | -46.33932 | 37397 ft | 519 kts | 75° |
| 2026-04-25 17:26 | 45.87193 | -46.24067 | 37407 ft | 515 kts | 75° |
| 2026-04-25 17:27 | 45.89269 | -46.14251 | 37417 ft | 514 kts | 76° |
| 2026-04-25 17:27 | 45.91006 | -46.06007 | 37425 ft | 514 kts | 76° |
| 2026-04-25 17:28 | 45.93400 | -45.94585 | 37427 ft | 514 kts | 76° |
| 2026-04-25 17:28 | 45.95456 | -45.84730 | 37432 ft | 515 kts | 76° |
| 2026-04-25 17:29 | 45.97506 | -45.74854 | 37446 ft | 516 kts | 76° |
| 2026-04-25 17:29 | 45.99551 | -45.64954 | 37448 ft | 517 kts | 76° |
| 2026-04-25 17:30 | 46.01589 | -45.55037 | 37451 ft | 517 kts | 76° |
| 2026-04-25 17:30 | 46.03622 | -45.45099 | 37459 ft | 518 kts | 76° |
| 2026-04-25 17:31 | 46.05648 | -45.35144 | 37467 ft | 518 kts | 77° |
| 2026-04-25 17:31 | 46.07669 | -45.25164 | 37469 ft | 519 kts | 77° |
| 2026-04-25 17:32 | 46.09678 | -45.15192 | 37474 ft | 519 kts | 77° |
| 2026-04-25 17:32 | 46.11684 | -45.05189 | 37477 ft | 519 kts | 77° |
| 2026-04-25 17:33 | 46.13679 | -44.95186 | 37485 ft | 519 kts | 77° |
| 2026-04-25 17:33 | 46.15665 | -44.85175 | 37486 ft | 519 kts | 77° |
| 2026-04-25 17:34 | 46.17643 | -44.75154 | 37491 ft | 519 kts | 77° |
| 2026-04-25 17:34 | 46.19610 | -44.65139 | 37498 ft | 519 kts | 77° |
| 2026-04-25 17:35 | 46.21570 | -44.55110 | 37504 ft | 519 kts | 77° |
| 2026-04-25 17:35 | 46.23518 | -44.45087 | 37497 ft | 518 kts | 78° |
| 2026-04-25 17:36 | 46.25461 | -44.35039 | 37502 ft | 518 kts | 78° |
| 2026-04-25 17:36 | 46.27378 | -44.25075 | 37507 ft | 518 kts | 78° |
| 2026-04-25 17:37 | 46.29296 | -44.15047 | 37511 ft | 517 kts | 78° |
| 2026-04-25 17:37 | 46.31215 | -44.04965 | 37515 ft | 517 kts | 78° |
| 2026-04-25 17:38 | 46.32796 | -43.96621 | 37515 ft | 517 kts | 78° |
| 2026-04-25 17:38 | 46.34995 | -43.84949 | 37512 ft | 517 kts | 78° |
| 2026-04-25 17:39 | 46.36878 | -43.74898 | 37519 ft | 517 kts | 78° |
| 2026-04-25 17:39 | 46.38750 | -43.64850 | 37519 ft | 517 kts | 79° |
| 2026-04-25 17:40 | 46.40616 | -43.54779 | 37520 ft | 517 kts | 79° |
| 2026-04-25 17:40 | 46.42471 | -43.44714 | 37527 ft | 517 kts | 79° |
| 2026-04-25 17:41 | 46.44319 | -43.34633 | 37524 ft | 517 kts | 79° |
| 2026-04-25 17:41 | 46.46159 | -43.24538 | 37530 ft | 518 kts | 79° |
| 2026-04-25 17:42 | 46.47990 | -43.14437 | 37546 ft | 518 kts | 79° |
| 2026-04-25 17:42 | 46.49816 | -43.04312 | 37540 ft | 519 kts | 79° |
| 2026-04-25 17:43 | 46.51633 | -42.94176 | 37539 ft | 519 kts | 79° |
| 2026-04-25 17:43 | 46.53442 | -42.84031 | 37538 ft | 519 kts | 79° |
| 2026-04-25 17:44 | 46.55232 | -42.73933 | 37545 ft | 519 kts | 79° |
| 2026-04-25 17:44 | 46.57022 | -42.63780 | 37545 ft | 519 kts | 80° |
| 2026-04-25 17:45 | 46.58216 | -42.56973 | 37547 ft | 519 kts | 80° |
| 2026-04-25 17:45 | 46.60578 | -42.43436 | 37548 ft | 519 kts | 80° |
| 2026-04-25 17:46 | 46.62341 | -42.33259 | 37549 ft | 519 kts | 80° |
| 2026-04-25 17:46 | 46.64098 | -42.23064 | 37555 ft | 518 kts | 80° |
| 2026-04-25 17:47 | 46.65843 | -42.12881 | 37553 ft | 518 kts | 80° |
| 2026-04-25 17:47 | 46.67578 | -42.02689 | 37555 ft | 518 kts | 80° |
| 2026-04-25 17:48 | 46.70161 | -41.87407 | 37554 ft | 518 kts | 81° |
| 2026-04-25 17:49 | 46.71873 | -41.77207 | 37554 ft | 518 kts | 81° |
| 2026-04-25 17:49 | 46.73562 | -41.67081 | 37556 ft | 518 kts | 81° |
| 2026-04-25 17:50 | 46.75253 | -41.56883 | 37573 ft | 518 kts | 81° |
| 2026-04-25 17:50 | 46.76937 | -41.46662 | 37563 ft | 518 kts | 81° |
| 2026-04-25 17:51 | 46.78612 | -41.36444 | 37562 ft | 518 kts | 81° |
| 2026-04-25 17:51 | 46.80279 | -41.26208 | 37565 ft | 518 kts | 81° |
| 2026-04-25 17:52 | 46.81936 | -41.15971 | 37565 ft | 518 kts | 81° |
| 2026-04-25 17:52 | 46.83582 | -41.05739 | 37573 ft | 517 kts | 81° |
| 2026-04-25 17:53 | 46.85219 | -40.95500 | 37578 ft | 517 kts | 82° |
| 2026-04-25 17:53 | 46.86845 | -40.85260 | 37580 ft | 517 kts | 82° |
| 2026-04-25 17:54 | 46.88462 | -40.75022 | 37581 ft | 518 kts | 82° |
| 2026-04-25 17:54 | 46.90073 | -40.64756 | 37587 ft | 518 kts | 82° |
| 2026-04-25 17:55 | 46.91673 | -40.54489 | 37590 ft | 518 kts | 82° |
| 2026-04-25 17:55 | 46.93268 | -40.44197 | 37595 ft | 519 kts | 82° |
| 2026-04-25 17:56 | 46.94854 | -40.33896 | 37603 ft | 519 kts | 82° |
| 2026-04-25 17:56 | 46.96431 | -40.23581 | 37609 ft | 519 kts | 83° |
| 2026-04-25 17:57 | 46.98000 | -40.13264 | 37609 ft | 520 kts | 83° |
| 2026-04-25 17:57 | 46.99555 | -40.02945 | 37607 ft | 519 kts | 84° |
| 2026-04-25 17:58 | 47.00443 | -39.92533 | 37608 ft | 512 kts | 92° |
| 2026-04-25 17:58 | 47.00833 | -39.82198 | 37620 ft | 512 kts | 93° |
| 2026-04-25 17:59 | 47.01206 | -39.71763 | 37615 ft | 513 kts | 93° |
| 2026-04-25 17:59 | 47.01610 | -39.61327 | 37624 ft | 514 kts | 93° |
| 2026-04-25 18:00 | 47.01956 | -39.52633 | 37624 ft | 514 kts | 93° |
| 2026-04-25 18:00 | 47.02369 | -39.42160 | 37624 ft | 516 kts | 93° |
| 2026-04-25 18:01 | 47.02772 | -39.31643 | 37624 ft | 517 kts | 93° |
| 2026-04-25 18:01 | 47.03164 | -39.21120 | 37629 ft | 518 kts | 93° |
| 2026-04-25 18:02 | 47.03547 | -39.10549 | 37635 ft | 520 kts | 93° |
| 2026-04-25 18:02 | 47.03922 | -38.99936 | 37638 ft | 522 kts | 93° |
| 2026-04-25 18:03 | 47.04288 | -38.89294 | 37632 ft | 523 kts | 93° |
| 2026-04-25 18:03 | 47.04646 | -38.78629 | 37638 ft | 524 kts | 93° |
| 2026-04-25 18:04 | 47.04994 | -38.67949 | 37641 ft | 525 kts | 93° |
| 2026-04-25 18:04 | 47.05332 | -38.57254 | 37637 ft | 525 kts | 93° |
| 2026-04-25 18:05 | 47.05660 | -38.46567 | 37646 ft | 525 kts | 92° |
| 2026-04-25 18:05 | 47.05979 | -38.35844 | 37645 ft | 525 kts | 92° |
| 2026-04-25 18:06 | 47.06287 | -38.25154 | 37638 ft | 524 kts | 92° |
| 2026-04-25 18:06 | 47.06585 | -38.14470 | 37638 ft | 524 kts | 92° |
| 2026-04-25 18:07 | 47.06873 | -38.03803 | 37640 ft | 523 kts | 92° |
| 2026-04-25 18:07 | 47.07150 | -37.93148 | 37642 ft | 522 kts | 92° |
| 2026-04-25 18:08 | 47.07416 | -37.82514 | 37656 ft | 522 kts | 92° |
| 2026-04-25 18:08 | 47.07673 | -37.71885 | 37657 ft | 521 kts | 92° |
| 2026-04-25 18:09 | 47.07919 | -37.61269 | 37661 ft | 520 kts | 92° |
| 2026-04-25 18:09 | 47.08156 | -37.50654 | 37665 ft | 520 kts | 92° |
| 2026-04-25 18:10 | 47.08381 | -37.40129 | 37666 ft | 519 kts | 92° |
| 2026-04-25 18:10 | 47.08597 | -37.29566 | 37678 ft | 518 kts | 93° |
| 2026-04-25 18:11 | 47.08803 | -37.19007 | 37676 ft | 517 kts | 93° |
| 2026-04-25 18:11 | 47.09000 | -37.08467 | 37680 ft | 516 kts | 93° |
| 2026-04-25 18:12 | 47.09186 | -36.97955 | 37678 ft | 515 kts | 93° |
| 2026-04-25 18:12 | 47.09362 | -36.87474 | 37690 ft | 514 kts | 93° |
| 2026-04-25 18:13 | 47.09528 | -36.76993 | 37695 ft | 513 kts | 94° |
| 2026-04-25 18:13 | 47.09684 | -36.66543 | 37702 ft | 512 kts | 94° |
| 2026-04-25 18:14 | 47.09900 | -36.50887 | 37711 ft | 511 kts | 94° |
| 2026-04-25 18:14 | 47.10032 | -36.40460 | 37723 ft | 511 kts | 94° |
| 2026-04-25 18:15 | 47.10155 | -36.30021 | 37720 ft | 511 kts | 94° |
| 2026-04-25 18:15 | 47.10268 | -36.19594 | 37730 ft | 511 kts | 94° |
| 2026-04-25 18:16 | 47.10372 | -36.09157 | 37728 ft | 511 kts | 94° |
| 2026-04-25 18:17 | 47.10510 | -35.93522 | 37743 ft | 511 kts | 94° |
| 2026-04-25 18:17 | 47.10590 | -35.83099 | 37742 ft | 511 kts | 94° |
| 2026-04-25 18:18 | 47.10661 | -35.72673 | 37753 ft | 511 kts | 94° |
| 2026-04-25 18:18 | 47.10722 | -35.62259 | 37755 ft | 510 kts | 94° |
| 2026-04-25 18:19 | 47.10774 | -35.51836 | 37765 ft | 510 kts | 94° |
| 2026-04-25 18:19 | 47.10816 | -35.41416 | 37768 ft | 510 kts | 94° |
| 2026-04-25 18:20 | 47.10849 | -35.30991 | 37765 ft | 511 kts | 94° |
| 2026-04-25 18:20 | 47.10872 | -35.20626 | 37776 ft | 511 kts | 94° |
| 2026-04-25 18:21 | 47.10886 | -35.10206 | 37785 ft | 511 kts | 94° |
| 2026-04-25 18:21 | 47.10890 | -34.99770 | 37789 ft | 511 kts | 94° |
| 2026-04-25 18:22 | 47.10885 | -34.89325 | 37802 ft | 512 kts | 94° |
| 2026-04-25 18:22 | 47.10871 | -34.78872 | 37791 ft | 514 kts | 94° |
| 2026-04-25 18:23 | 47.10847 | -34.68383 | 37809 ft | 513 kts | 94° |
| 2026-04-25 18:23 | 47.10813 | -34.57850 | 37820 ft | 513 kts | 94° |
| 2026-04-25 18:24 | 47.10771 | -34.47450 | 37826 ft | 512 kts | 94° |
| 2026-04-25 18:24 | 47.10718 | -34.36996 | 37832 ft | 512 kts | 94° |
| 2026-04-25 18:25 | 47.10656 | -34.26556 | 37835 ft | 511 kts | 94° |
| 2026-04-25 18:25 | 47.10585 | -34.16124 | 37839 ft | 511 kts | 94° |
| 2026-04-25 18:26 | 47.10504 | -34.05696 | 37843 ft | 511 kts | 94° |
| 2026-04-25 18:26 | 47.10414 | -33.95272 | 37862 ft | 510 kts | 94° |
| 2026-04-25 18:27 | 47.10314 | -33.84865 | 37862 ft | 510 kts | 94° |
| 2026-04-25 18:27 | 47.10205 | -33.74451 | 37863 ft | 510 kts | 94° |
| 2026-04-25 18:28 | 47.10087 | -33.64059 | 37868 ft | 509 kts | 94° |
| 2026-04-25 18:28 | 47.09959 | -33.53674 | 37882 ft | 509 kts | 95° |
| 2026-04-25 18:29 | 47.09751 | -33.38114 | 37890 ft | 508 kts | 95° |
| 2026-04-25 18:30 | 47.09440 | -33.17409 | 37898 ft | 507 kts | 95° |
| 2026-04-25 18:30 | 47.09271 | -33.07073 | 37902 ft | 506 kts | 95° |
| 2026-04-25 18:31 | 47.09094 | -32.96767 | 37910 ft | 505 kts | 95° |
| 2026-04-25 18:31 | 47.08907 | -32.86463 | 37910 ft | 504 kts | 95° |
| 2026-04-25 18:32 | 47.08711 | -32.76184 | 37917 ft | 504 kts | 95° |
| 2026-04-25 18:32 | 47.08506 | -32.65918 | 37922 ft | 503 kts | 95° |
| 2026-04-25 18:33 | 47.08293 | -32.55663 | 37929 ft | 503 kts | 95° |
| 2026-04-25 18:33 | 47.08070 | -32.45411 | 37930 ft | 502 kts | 95° |
| 2026-04-25 18:34 | 47.07840 | -32.35232 | 37944 ft | 502 kts | 95° |
| 2026-04-25 18:34 | 47.07599 | -32.24994 | 37941 ft | 502 kts | 95° |
| 2026-04-25 18:35 | 47.07349 | -32.14759 | 37954 ft | 502 kts | 95° |
| 2026-04-25 18:35 | 47.07090 | -32.04528 | 37953 ft | 502 kts | 95° |
| 2026-04-25 18:36 | 47.06820 | -31.94225 | 37963 ft | 502 kts | 95° |
| 2026-04-25 18:36 | 47.06543 | -31.83990 | 37966 ft | 502 kts | 95° |
| 2026-04-25 18:37 | 47.06257 | -31.73758 | 37972 ft | 502 kts | 95° |
| 2026-04-25 18:37 | 47.05962 | -31.63533 | 37978 ft | 502 kts | 95° |
| 2026-04-25 18:38 | 47.05658 | -31.53323 | 37984 ft | 502 kts | 96° |
| 2026-04-25 18:38 | 47.05347 | -31.43166 | 37985 ft | 502 kts | 96° |
| 2026-04-25 18:39 | 47.05024 | -31.32951 | 37990 ft | 501 kts | 96° |
| 2026-04-25 18:39 | 47.04693 | -31.22732 | 37994 ft | 501 kts | 96° |
| 2026-04-25 18:40 | 47.04353 | -31.12535 | 38001 ft | 501 kts | 96° |
| 2026-04-25 18:40 | 47.04004 | -31.02332 | 38008 ft | 501 kts | 96° |
| 2026-04-25 18:41 | 47.03646 | -30.92139 | 38010 ft | 501 kts | 96° |
| 2026-04-25 18:41 | 47.03279 | -30.81949 | 38016 ft | 501 kts | 96° |
| 2026-04-25 18:42 | 47.03028 | -30.75119 | 38020 ft | 501 kts | 96° |
| 2026-04-25 18:42 | 47.02583 | -30.63265 | 38024 ft | 501 kts | 96° |
| 2026-04-25 18:43 | 47.02190 | -30.53072 | 38033 ft | 501 kts | 96° |
| 2026-04-25 18:43 | 47.01788 | -30.42872 | 38031 ft | 502 kts | 96° |
| 2026-04-25 18:44 | 47.01377 | -30.32665 | 38038 ft | 502 kts | 96° |
| 2026-04-25 18:44 | 47.00956 | -30.22446 | 38046 ft | 502 kts | 96° |
| 2026-04-25 18:45 | 47.00527 | -30.12236 | 38044 ft | 502 kts | 96° |
| 2026-04-25 18:45 | 47.00093 | -30.02013 | 38046 ft | 503 kts | 95° |
| 2026-04-25 18:46 | 47.00247 | -29.91759 | 38057 ft | 505 kts | 88° |
| 2026-04-25 18:46 | 47.00731 | -29.81481 | 38153 ft | 507 kts | 88° |
| 2026-04-25 18:47 | 47.00972 | -29.76399 | 38463 ft | 505 kts | 88° |
| 2026-04-25 18:47 | 47.01207 | -29.71215 | 38800 ft | 502 kts | 88° |
| 2026-04-25 18:47 | 47.01425 | -29.66174 | 38991 ft | 502 kts | 88° |
| 2026-04-25 18:47 | 47.01636 | -29.61073 | 39134 ft | 502 kts | 88° |
| 2026-04-25 18:48 | 47.01841 | -29.55957 | 39267 ft | 503 kts | 88° |
| 2026-04-25 18:48 | 47.02042 | -29.50833 | 39413 ft | 504 kts | 88° |
| 2026-04-25 18:48 | 47.02240 | -29.45706 | 39585 ft | 503 kts | 88° |
| 2026-04-25 18:48 | 47.02436 | -29.40593 | 39749 ft | 503 kts | 88° |
| 2026-04-25 18:49 | 47.02631 | -29.35476 | 39909 ft | 503 kts | 88° |
| 2026-04-25 18:49 | 47.02823 | -29.30356 | 39973 ft | 503 kts | 88° |
| 2026-04-25 18:49 | 47.03203 | -29.20106 | 40066 ft | 504 kts | 88° |
| 2026-04-25 18:50 | 47.03575 | -29.09840 | 40071 ft | 504 kts | 88° |
| 2026-04-25 18:50 | 47.03937 | -28.99587 | 40073 ft | 504 kts | 88° |
| 2026-04-25 18:51 | 47.04233 | -28.90991 | 40079 ft | 504 kts | 88° |
| 2026-04-25 18:51 | 47.04633 | -28.79060 | 40080 ft | 504 kts | 88° |
| 2026-04-25 18:52 | 47.04968 | -28.68783 | 40084 ft | 504 kts | 88° |
| 2026-04-25 18:52 | 47.05294 | -28.58522 | 40084 ft | 504 kts | 88° |
| 2026-04-25 18:53 | 47.05610 | -28.48259 | 40088 ft | 504 kts | 88° |
| 2026-04-25 18:53 | 47.05917 | -28.37986 | 40089 ft | 504 kts | 88° |
| 2026-04-25 18:54 | 47.06361 | -28.22569 | 40091 ft | 504 kts | 88° |
| 2026-04-25 18:55 | 47.06645 | -28.12284 | 40095 ft | 504 kts | 88° |
| 2026-04-25 18:55 | 47.06920 | -28.02001 | 40094 ft | 505 kts | 88° |
| 2026-04-25 18:56 | 47.07186 | -27.91712 | 40096 ft | 505 kts | 88° |
| 2026-04-25 18:56 | 47.07443 | -27.81425 | 40099 ft | 505 kts | 88° |
| 2026-04-25 18:57 | 47.07691 | -27.71131 | 40098 ft | 505 kts | 88° |
| 2026-04-25 18:57 | 47.07928 | -27.60907 | 40099 ft | 505 kts | 88° |
| 2026-04-25 18:58 | 47.08157 | -27.50614 | 40101 ft | 505 kts | 88° |
| 2026-04-25 18:58 | 47.08484 | -27.35167 | 40104 ft | 505 kts | 88° |
| 2026-04-25 18:59 | 47.08887 | -27.14593 | 40100 ft | 504 kts | 88° |
| 2026-04-25 19:00 | 47.09164 | -26.99175 | 40107 ft | 503 kts | 89° |
| 2026-04-25 19:01 | 47.09421 | -26.83780 | 40106 ft | 503 kts | 89° |
| 2026-04-25 19:01 | 47.09581 | -26.73528 | 40105 ft | 502 kts | 89° |
| 2026-04-25 19:02 | 47.09802 | -26.58160 | 40114 ft | 502 kts | 89° |
| 2026-04-25 19:03 | 47.09960 | -26.46267 | 40110 ft | 501 kts | 89° |
| 2026-04-25 19:03 | 47.10126 | -26.32596 | 40104 ft | 501 kts | 89° |
| 2026-04-25 19:04 | 47.10293 | -26.17273 | 40112 ft | 500 kts | 89° |
| 2026-04-25 19:05 | 47.10483 | -25.96855 | 40111 ft | 500 kts | 89° |
| 2026-04-25 19:06 | 47.10564 | -25.86719 | 40111 ft | 500 kts | 89° |
| 2026-04-25 19:06 | 47.10669 | -25.71426 | 40109 ft | 500 kts | 89° |
| 2026-04-25 19:07 | 47.10754 | -25.56130 | 40113 ft | 499 kts | 89° |
| 2026-04-25 19:08 | 47.10819 | -25.40848 | 40111 ft | 499 kts | 90° |
| 2026-04-25 19:09 | 47.10870 | -25.22124 | 40112 ft | 499 kts | 90° |
| 2026-04-25 19:10 | 47.10890 | -25.05185 | 40111 ft | 499 kts | 90° |
| 2026-04-25 19:10 | 47.10890 | -24.94990 | 40111 ft | 499 kts | 90° |
| 2026-04-25 19:11 | 47.10881 | -24.84799 | 40110 ft | 499 kts | 90° |
| 2026-04-25 19:11 | 47.10863 | -24.74610 | 40111 ft | 499 kts | 90° |
| 2026-04-25 19:12 | 47.10836 | -24.64417 | 40108 ft | 499 kts | 90° |
| 2026-04-25 19:12 | 47.10800 | -24.54218 | 40110 ft | 499 kts | 90° |
| 2026-04-25 19:13 | 47.10755 | -24.44026 | 40105 ft | 499 kts | 90° |
| 2026-04-25 19:13 | 47.10701 | -24.33846 | 40105 ft | 499 kts | 90° |
| 2026-04-25 19:14 | 47.10638 | -24.23668 | 40105 ft | 499 kts | 91° |
| 2026-04-25 19:14 | 47.10566 | -24.13495 | 40105 ft | 498 kts | 91° |
| 2026-04-25 19:15 | 47.10484 | -24.03309 | 40107 ft | 498 kts | 91° |
| 2026-04-25 19:15 | 47.10394 | -23.93151 | 40106 ft | 498 kts | 91° |
| 2026-04-25 19:16 | 47.10295 | -23.82972 | 40105 ft | 498 kts | 91° |
| 2026-04-25 19:16 | 47.10187 | -23.72806 | 40105 ft | 498 kts | 91° |
| 2026-04-25 19:17 | 47.10071 | -23.62698 | 40104 ft | 498 kts | 91° |
| 2026-04-25 19:17 | 47.09945 | -23.52531 | 40102 ft | 499 kts | 91° |
| 2026-04-25 19:18 | 47.09810 | -23.42358 | 40104 ft | 499 kts | 91° |
| 2026-04-25 19:18 | 47.09665 | -23.32175 | 40101 ft | 499 kts | 91° |
| 2026-04-25 19:19 | 47.09512 | -23.21986 | 40097 ft | 499 kts | 91° |
| 2026-04-25 19:19 | 47.09350 | -23.11817 | 40100 ft | 499 kts | 91° |
| 2026-04-25 19:20 | 47.09179 | -23.01637 | 40097 ft | 499 kts | 92° |
| 2026-04-25 19:20 | 47.08998 | -22.91447 | 40095 ft | 499 kts | 92° |
| 2026-04-25 19:21 | 47.08808 | -22.81204 | 40096 ft | 499 kts | 92° |
| 2026-04-25 19:21 | 47.08508 | -22.65995 | 40091 ft | 499 kts | 92° |
| 2026-04-25 19:22 | 47.08296 | -22.55816 | 40094 ft | 499 kts | 92° |
| 2026-04-25 19:23 | 47.07961 | -22.40537 | 40088 ft | 500 kts | 92° |
| 2026-04-25 19:23 | 47.07605 | -22.25248 | 40081 ft | 500 kts | 92° |
| 2026-04-25 19:24 | 47.07357 | -22.15058 | 40081 ft | 500 kts | 92° |
| 2026-04-25 19:25 | 47.06833 | -21.94692 | 40081 ft | 500 kts | 93° |
| 2026-04-25 19:25 | 47.06558 | -21.84503 | 40076 ft | 500 kts | 93° |
| 2026-04-25 19:26 | 47.06322 | -21.76043 | 40069 ft | 500 kts | 93° |
| 2026-04-25 19:26 | 47.06030 | -21.65869 | 40070 ft | 500 kts | 93° |
| 2026-04-25 19:27 | 47.05780 | -21.57396 | 40072 ft | 500 kts | 93° |
| 2026-04-25 19:27 | 47.05418 | -21.45475 | 40068 ft | 500 kts | 93° |
| 2026-04-25 19:28 | 47.05099 | -21.35279 | 40068 ft | 501 kts | 93° |
| 2026-04-25 19:28 | 47.04770 | -21.25080 | 40067 ft | 501 kts | 93° |
| 2026-04-25 19:29 | 47.04432 | -21.14873 | 40065 ft | 501 kts | 93° |
| 2026-04-25 19:29 | 47.04085 | -21.04672 | 40062 ft | 501 kts | 94° |
| 2026-04-25 19:30 | 47.03729 | -20.94471 | 40064 ft | 501 kts | 94° |
| 2026-04-25 19:30 | 47.03364 | -20.84273 | 40064 ft | 501 kts | 94° |
| 2026-04-25 19:31 | 47.02990 | -20.74076 | 40063 ft | 501 kts | 94° |
| 2026-04-25 19:31 | 47.02606 | -20.63878 | 40061 ft | 501 kts | 94° |
| 2026-04-25 19:32 | 47.02214 | -20.53692 | 40060 ft | 501 kts | 94° |
| 2026-04-25 19:32 | 47.01882 | -20.45223 | 40059 ft | 501 kts | 94° |
| 2026-04-25 19:33 | 47.01404 | -20.33322 | 40062 ft | 501 kts | 94° |
| 2026-04-25 19:33 | 47.00984 | -20.23135 | 40062 ft | 501 kts | 94° |
| 2026-04-25 19:34 | 47.00557 | -20.12947 | 40057 ft | 501 kts | 94° |
| 2026-04-25 19:34 | 47.00120 | -20.02749 | 40062 ft | 501 kts | 94° |
| 2026-04-25 19:35 | 47.00065 | -19.92544 | 40060 ft | 501 kts | 89° |
| 2026-04-25 19:35 | 47.00312 | -19.82340 | 40066 ft | 501 kts | 88° |
| 2026-04-25 19:36 | 47.00559 | -19.72130 | 40065 ft | 501 kts | 89° |
| 2026-04-25 19:36 | 47.00768 | -19.61912 | 40063 ft | 501 kts | 89° |
| 2026-04-25 19:37 | 47.00952 | -19.51710 | 40063 ft | 501 kts | 89° |
| 2026-04-25 19:37 | 47.01124 | -19.41503 | 40069 ft | 501 kts | 89° |
| 2026-04-25 19:38 | 47.01288 | -19.31282 | 40066 ft | 501 kts | 89° |
| 2026-04-25 19:38 | 47.01445 | -19.21070 | 40070 ft | 501 kts | 90° |
| 2026-04-25 19:39 | 47.01592 | -19.10867 | 40070 ft | 501 kts | 90° |
| 2026-04-25 19:39 | 47.01731 | -19.00664 | 40077 ft | 501 kts | 90° |
| 2026-04-25 19:40 | 47.01860 | -18.90459 | 40072 ft | 501 kts | 90° |
| 2026-04-25 19:40 | 47.01980 | -18.80251 | 40089 ft | 501 kts | 90° |
| 2026-04-25 19:41 | 47.02091 | -18.70116 | 40087 ft | 501 kts | 90° |
| 2026-04-25 19:41 | 47.02177 | -18.61570 | 40087 ft | 501 kts | 90° |
| 2026-04-25 19:42 | 47.02286 | -18.49723 | 40083 ft | 500 kts | 90° |
| 2026-04-25 19:42 | 47.02370 | -18.39512 | 40099 ft | 501 kts | 91° |
| 2026-04-25 19:43 | 47.02445 | -18.29321 | 40099 ft | 501 kts | 91° |
| 2026-04-25 19:43 | 47.02511 | -18.19105 | 40093 ft | 501 kts | 91° |
| 2026-04-25 19:44 | 47.02568 | -18.08905 | 40110 ft | 501 kts | 91° |
| 2026-04-25 19:44 | 47.02616 | -17.98680 | 40110 ft | 501 kts | 91° |
| 2026-04-25 19:45 | 47.02654 | -17.88475 | 40105 ft | 501 kts | 91° |
| 2026-04-25 19:45 | 47.02684 | -17.78268 | 40117 ft | 501 kts | 91° |
| 2026-04-25 19:46 | 47.02705 | -17.68054 | 40118 ft | 501 kts | 91° |
| 2026-04-25 19:46 | 47.02716 | -17.57830 | 40117 ft | 501 kts | 92° |
| 2026-04-25 19:47 | 47.02719 | -17.47624 | 40126 ft | 501 kts | 92° |
| 2026-04-25 19:47 | 47.02712 | -17.37424 | 40128 ft | 501 kts | 92° |
| 2026-04-25 19:48 | 47.02696 | -17.27277 | 40134 ft | 501 kts | 92° |
| 2026-04-25 19:48 | 47.02672 | -17.17071 | 40140 ft | 501 kts | 92° |
| 2026-04-25 19:49 | 47.02650 | -17.10232 | 40136 ft | 501 kts | 92° |
| 2026-04-25 19:49 | 47.02595 | -16.96641 | 40143 ft | 501 kts | 92° |
| 2026-04-25 19:50 | 47.02513 | -16.81314 | 40155 ft | 501 kts | 92° |
| 2026-04-25 19:51 | 47.02448 | -16.71104 | 40157 ft | 501 kts | 92° |
| 2026-04-25 19:51 | 47.02373 | -16.60876 | 40162 ft | 502 kts | 93° |
| 2026-04-25 19:52 | 47.02289 | -16.50662 | 40164 ft | 502 kts | 93° |
| 2026-04-25 19:52 | 47.02196 | -16.40436 | 40165 ft | 502 kts | 93° |
| 2026-04-25 19:53 | 47.02094 | -16.30203 | 40171 ft | 502 kts | 93° |
| 2026-04-25 19:53 | 47.01983 | -16.19981 | 40175 ft | 502 kts | 93° |
| 2026-04-25 19:54 | 47.01863 | -16.09731 | 40178 ft | 502 kts | 93° |
| 2026-04-25 19:54 | 47.01733 | -15.99505 | 40179 ft | 502 kts | 93° |
| 2026-04-25 19:55 | 47.01594 | -15.89265 | 40182 ft | 502 kts | 94° |
| 2026-04-25 19:55 | 47.01447 | -15.79030 | 40195 ft | 502 kts | 94° |
| 2026-04-25 19:56 | 47.01290 | -15.68793 | 40195 ft | 502 kts | 94° |
| 2026-04-25 19:56 | 47.01124 | -15.58563 | 40189 ft | 502 kts | 94° |
| 2026-04-25 19:57 | 47.00950 | -15.48406 | 40190 ft | 502 kts | 94° |
| 2026-04-25 19:57 | 47.00766 | -15.38176 | 40191 ft | 502 kts | 94° |
| 2026-04-25 19:58 | 47.00573 | -15.27963 | 40194 ft | 501 kts | 94° |
| 2026-04-25 19:58 | 47.00371 | -15.17694 | 40198 ft | 501 kts | 94° |
| 2026-04-25 19:59 | 47.00163 | -15.07565 | 40197 ft | 500 kts | 94° |
| 2026-04-25 19:59 | 47.00023 | -14.97376 | 40203 ft | 501 kts | 91° |
| 2026-04-25 20:00 | 47.00266 | -14.87188 | 40210 ft | 501 kts | 90° |
| 2026-04-25 20:00 | 47.00573 | -14.76986 | 40209 ft | 501 kts | 90° |
| 2026-04-25 20:01 | 47.00981 | -14.61699 | 40211 ft | 500 kts | 90° |
| 2026-04-25 20:01 | 47.01219 | -14.51527 | 40216 ft | 500 kts | 90° |
| 2026-04-25 20:02 | 47.01446 | -14.41345 | 40215 ft | 500 kts | 90° |
| 2026-04-25 20:02 | 47.01666 | -14.31162 | 40215 ft | 499 kts | 90° |
| 2026-04-25 20:03 | 47.01877 | -14.20991 | 40222 ft | 499 kts | 90° |
| 2026-04-25 20:03 | 47.02079 | -14.10826 | 40216 ft | 499 kts | 91° |
| 2026-04-25 20:04 | 47.02271 | -14.00719 | 40221 ft | 499 kts | 91° |
| 2026-04-25 20:04 | 47.02456 | -13.90561 | 40229 ft | 499 kts | 91° |
| 2026-04-25 20:05 | 47.02631 | -13.80399 | 40224 ft | 499 kts | 91° |
| 2026-04-25 20:05 | 47.02797 | -13.70229 | 40223 ft | 499 kts | 91° |
| 2026-04-25 20:06 | 47.02954 | -13.60053 | 40225 ft | 499 kts | 91° |
| 2026-04-25 20:06 | 47.03102 | -13.49896 | 40228 ft | 499 kts | 91° |
| 2026-04-25 20:07 | 47.03242 | -13.39734 | 40227 ft | 499 kts | 91° |
| 2026-04-25 20:07 | 47.03372 | -13.29573 | 40230 ft | 498 kts | 91° |
| 2026-04-25 20:08 | 47.03493 | -13.19416 | 40236 ft | 498 kts | 91° |
| 2026-04-25 20:08 | 47.03605 | -13.09254 | 40236 ft | 498 kts | 91° |
| 2026-04-25 20:09 | 47.03708 | -12.99109 | 40237 ft | 498 kts | 91° |
| 2026-04-25 20:09 | 47.03802 | -12.88948 | 40234 ft | 498 kts | 91° |
| 2026-04-25 20:10 | 47.03874 | -12.80518 | 40235 ft | 498 kts | 91° |
| 2026-04-25 20:10 | 47.03963 | -12.68726 | 40236 ft | 498 kts | 91° |
| 2026-04-25 20:11 | 47.04030 | -12.58582 | 40237 ft | 497 kts | 91° |
| 2026-04-25 20:11 | 47.04089 | -12.48433 | 40237 ft | 497 kts | 91° |
| 2026-04-25 20:12 | 47.04131 | -12.39934 | 40241 ft | 497 kts | 91° |
| 2026-04-25 20:12 | 47.04166 | -12.31502 | 40243 ft | 497 kts | 91° |
| 2026-04-25 20:13 | 47.04205 | -12.19728 | 40237 ft | 497 kts | 91° |
| 2026-04-25 20:13 | 47.04229 | -12.09597 | 40244 ft | 497 kts | 92° |
| 2026-04-25 20:14 | 47.04244 | -11.99462 | 40235 ft | 497 kts | 92° |
| 2026-04-25 20:14 | 47.04250 | -11.89335 | 40242 ft | 497 kts | 92° |
| 2026-04-25 20:15 | 47.04247 | -11.79218 | 40236 ft | 496 kts | 92° |
| 2026-04-25 20:15 | 47.04236 | -11.69091 | 40249 ft | 496 kts | 92° |
| 2026-04-25 20:16 | 47.04215 | -11.58965 | 40245 ft | 496 kts | 92° |
| 2026-04-25 20:16 | 47.04185 | -11.48860 | 40243 ft | 496 kts | 92° |
| 2026-04-25 20:17 | 47.04147 | -11.38810 | 40254 ft | 496 kts | 92° |
| 2026-04-25 20:17 | 47.04100 | -11.28697 | 40251 ft | 496 kts | 92° |
| 2026-04-25 20:18 | 47.04044 | -11.18587 | 40248 ft | 496 kts | 92° |
| 2026-04-25 20:18 | 47.03979 | -11.08477 | 40246 ft | 496 kts | 92° |
| 2026-04-25 20:19 | 47.03904 | -10.98366 | 40247 ft | 496 kts | 92° |
| 2026-04-25 20:19 | 47.03822 | -10.88253 | 40250 ft | 496 kts | 92° |
| 2026-04-25 20:20 | 47.03730 | -10.78131 | 40248 ft | 496 kts | 92° |
| 2026-04-25 20:20 | 47.03629 | -10.68024 | 40249 ft | 496 kts | 92° |
| 2026-04-25 20:21 | 47.03520 | -10.57926 | 40247 ft | 496 kts | 93° |
| 2026-04-25 20:21 | 47.03401 | -10.47799 | 40250 ft | 496 kts | 93° |
| 2026-04-25 20:22 | 47.03296 | -10.39396 | 40250 ft | 496 kts | 93° |
| 2026-04-25 20:22 | 47.03137 | -10.27584 | 40250 ft | 496 kts | 93° |
| 2026-04-25 20:23 | 47.02992 | -10.17482 | 40250 ft | 496 kts | 93° |
| 2026-04-25 20:23 | 47.02838 | -10.07361 | 40250 ft | 496 kts | 93° |
| 2026-04-25 20:24 | 47.02675 | -9.97252 | 40251 ft | 496 kts | 93° |
| 2026-04-25 20:24 | 47.02503 | -9.87131 | 40254 ft | 496 kts | 93° |
| 2026-04-25 20:25 | 47.02323 | -9.77083 | 40251 ft | 496 kts | 93° |
| 2026-04-25 20:25 | 47.02133 | -9.66970 | 40250 ft | 496 kts | 93° |
| 2026-04-25 20:26 | 47.01934 | -9.56848 | 40248 ft | 496 kts | 93° |
| 2026-04-25 20:26 | 47.01727 | -9.46738 | 40246 ft | 496 kts | 93° |
| 2026-04-25 20:27 | 47.01510 | -9.36624 | 40242 ft | 496 kts | 93° |
| 2026-04-25 20:27 | 47.01286 | -9.26529 | 40247 ft | 496 kts | 93° |
| 2026-04-25 20:28 | 47.01052 | -9.16442 | 40246 ft | 495 kts | 93° |
| 2026-04-25 20:28 | 47.00810 | -9.06366 | 40244 ft | 495 kts | 93° |
| 2026-04-25 20:29 | 47.00559 | -8.96295 | 40247 ft | 494 kts | 93° |
| 2026-04-25 20:29 | 47.00300 | -8.86235 | 40244 ft | 494 kts | 93° |
| 2026-04-25 20:30 | 47.00032 | -8.76163 | 40244 ft | 494 kts | 93° |
| 2026-04-25 20:30 | 46.99922 | -8.66103 | 40243 ft | 494 kts | 90° |
| 2026-04-25 20:31 | 47.00004 | -8.56023 | 40249 ft | 494 kts | 90° |
| 2026-04-25 20:31 | 47.00058 | -8.45949 | 40241 ft | 495 kts | 91° |
| 2026-04-25 20:32 | 47.00065 | -8.35869 | 40246 ft | 495 kts | 91° |
| 2026-04-25 20:32 | 47.00055 | -8.25788 | 40237 ft | 495 kts | 91° |
| 2026-04-25 20:33 | 47.00040 | -8.15717 | 40239 ft | 495 kts | 91° |
| 2026-04-25 20:33 | 47.00022 | -8.07329 | 40241 ft | 495 kts | 91° |
| 2026-04-25 20:34 | 46.99497 | -7.95610 | 40242 ft | 493 kts | 102° |
| 2026-04-25 20:34 | 46.98121 | -7.85762 | 40239 ft | 493 kts | 103° |
| 2026-04-25 20:35 | 46.96692 | -7.75949 | 40239 ft | 493 kts | 103° |
| 2026-04-25 20:35 | 46.95290 | -7.66134 | 40242 ft | 493 kts | 103° |
| 2026-04-25 20:36 | 46.93904 | -7.56315 | 40242 ft | 493 kts | 102° |
| 2026-04-25 20:36 | 46.92525 | -7.46558 | 40243 ft | 493 kts | 102° |
| 2026-04-25 20:37 | 46.91130 | -7.36758 | 40241 ft | 492 kts | 102° |
| 2026-04-25 20:37 | 46.89723 | -7.26955 | 40241 ft | 492 kts | 102° |
| 2026-04-25 20:38 | 46.88307 | -7.17158 | 40240 ft | 492 kts | 102° |
| 2026-04-25 20:38 | 46.86886 | -7.07386 | 40245 ft | 492 kts | 102° |
| 2026-04-25 20:39 | 46.85457 | -6.97618 | 40243 ft | 492 kts | 102° |
| 2026-04-25 20:40 | 46.82721 | -6.79093 | 40242 ft | 491 kts | 102° |
| 2026-04-25 20:40 | 46.81266 | -6.69335 | 40418 ft | 492 kts | 103° |
| 2026-04-25 20:41 | 46.80537 | -6.64468 | 40641 ft | 491 kts | 103° |
| 2026-04-25 20:41 | 46.79807 | -6.59602 | 40831 ft | 490 kts | 102° |
| 2026-04-25 20:41 | 46.79075 | -6.54746 | 40993 ft | 491 kts | 102° |
| 2026-04-25 20:41 | 46.78340 | -6.49881 | 41119 ft | 491 kts | 102° |
| 2026-04-25 20:42 | 46.76857 | -6.40116 | 41224 ft | 492 kts | 102° |
| 2026-04-25 20:42 | 46.75370 | -6.30382 | 41233 ft | 492 kts | 103° |
| 2026-04-25 20:43 | 46.73873 | -6.20645 | 41236 ft | 492 kts | 103° |
| 2026-04-25 20:43 | 46.72368 | -6.10912 | 41229 ft | 492 kts | 103° |
| 2026-04-25 20:44 | 46.70858 | -6.01202 | 41231 ft | 492 kts | 103° |
| 2026-04-25 20:44 | 46.69345 | -5.91534 | 41234 ft | 492 kts | 103° |
| 2026-04-25 20:45 | 46.67816 | -5.81824 | 41232 ft | 492 kts | 103° |
| 2026-04-25 20:45 | 46.66279 | -5.72116 | 41226 ft | 492 kts | 103° |
| 2026-04-25 20:46 | 46.64732 | -5.62409 | 41225 ft | 492 kts | 103° |
| 2026-04-25 20:46 | 46.63179 | -5.52716 | 41226 ft | 492 kts | 103° |
| 2026-04-25 20:47 | 46.61617 | -5.43024 | 41226 ft | 492 kts | 102° |
| 2026-04-25 20:47 | 46.60046 | -5.33332 | 41224 ft | 492 kts | 103° |
| 2026-04-25 20:48 | 46.58468 | -5.23656 | 41223 ft | 491 kts | 103° |
| 2026-04-25 20:48 | 46.56883 | -5.13990 | 41219 ft | 491 kts | 103° |
| 2026-04-25 20:49 | 46.55293 | -5.04348 | 41217 ft | 490 kts | 103° |
| 2026-04-25 20:49 | 46.53694 | -4.94713 | 41217 ft | 490 kts | 103° |
| 2026-04-25 20:50 | 46.52116 | -4.85100 | 41213 ft | 489 kts | 100° |
| 2026-04-25 20:50 | 46.51371 | -4.75330 | 41226 ft | 487 kts | 92° |
| 2026-04-25 20:51 | 46.50948 | -4.65518 | 41212 ft | 486 kts | 92° |
| 2026-04-25 20:51 | 46.50504 | -4.55729 | 41210 ft | 486 kts | 93° |
| 2026-04-25 20:52 | 46.50103 | -4.47599 | 41210 ft | 486 kts | 93° |
| 2026-04-25 20:52 | 46.49513 | -4.36179 | 41210 ft | 486 kts | 93° |
| 2026-04-25 20:53 | 46.48995 | -4.26397 | 41210 ft | 485 kts | 93° |
| 2026-04-25 20:53 | 46.48471 | -4.16635 | 41210 ft | 485 kts | 93° |
| 2026-04-25 20:54 | 46.47940 | -4.06870 | 41208 ft | 486 kts | 94° |
| 2026-04-25 20:54 | 46.47404 | -3.97166 | 41203 ft | 486 kts | 94° |
| 2026-04-25 20:55 | 46.46856 | -3.87407 | 41203 ft | 485 kts | 94° |
| 2026-04-25 20:55 | 46.46300 | -3.77642 | 41198 ft | 485 kts | 94° |
| 2026-04-25 20:56 | 46.45736 | -3.67886 | 41199 ft | 485 kts | 94° |
| 2026-04-25 20:56 | 46.45164 | -3.58128 | 41196 ft | 485 kts | 94° |
| 2026-04-25 20:57 | 46.44583 | -3.48375 | 41198 ft | 485 kts | 94° |
| 2026-04-25 20:57 | 46.43994 | -3.38628 | 41194 ft | 485 kts | 94° |
| 2026-04-25 20:58 | 46.43397 | -3.28881 | 41194 ft | 485 kts | 94° |
| 2026-04-25 20:58 | 46.42792 | -3.19135 | 41192 ft | 486 kts | 94° |
| 2026-04-25 20:59 | 46.42177 | -3.09385 | 41193 ft | 486 kts | 94° |
| 2026-04-25 20:59 | 46.41555 | -2.99633 | 41193 ft | 486 kts | 94° |
| 2026-04-25 21:00 | 46.41133 | -2.93104 | 41193 ft | 486 kts | 94° |
| 2026-04-25 21:01 | 46.39961 | -2.75249 | 41189 ft | 487 kts | 95° |
| 2026-04-25 21:01 | 46.39308 | -2.65482 | 41189 ft | 487 kts | 95° |
| 2026-04-25 21:02 | 46.38646 | -2.55722 | 41187 ft | 487 kts | 95° |
| 2026-04-25 21:02 | 46.37976 | -2.45957 | 41187 ft | 487 kts | 95° |
| 2026-04-25 21:03 | 46.37299 | -2.36206 | 41188 ft | 487 kts | 95° |
| 2026-04-25 21:03 | 46.36611 | -2.26434 | 41185 ft | 487 kts | 95° |
| 2026-04-25 21:04 | 46.35919 | -2.16722 | 41183 ft | 488 kts | 95° |
| 2026-04-25 21:04 | 46.35216 | -2.06970 | 41188 ft | 488 kts | 95° |
| 2026-04-25 21:05 | 46.34508 | -1.97263 | 41189 ft | 488 kts | 95° |
| 2026-04-25 21:05 | 46.33785 | -1.87464 | 41182 ft | 489 kts | 95° |
| 2026-04-25 21:06 | 46.33056 | -1.77702 | 41179 ft | 489 kts | 95° |
| 2026-04-25 21:06 | 46.32315 | -1.67901 | 41176 ft | 489 kts | 96° |
| 2026-04-25 21:07 | 46.31568 | -1.58125 | 41174 ft | 489 kts | 96° |
| 2026-04-25 21:07 | 46.30812 | -1.48348 | 41175 ft | 490 kts | 96° |
| 2026-04-25 21:08 | 46.30046 | -1.38557 | 41182 ft | 490 kts | 96° |
| 2026-04-25 21:08 | 46.29272 | -1.28766 | 41185 ft | 490 kts | 96° |
| 2026-04-25 21:09 | 46.28094 | -1.14067 | 41183 ft | 491 kts | 96° |
| 2026-04-25 21:09 | 46.27298 | -1.04279 | 41184 ft | 491 kts | 96° |
| 2026-04-25 21:10 | 46.26494 | -0.94482 | 41179 ft | 491 kts | 96° |
| 2026-04-25 21:10 | 46.25681 | -0.84695 | 41172 ft | 491 kts | 96° |
| 2026-04-25 21:11 | 46.24860 | -0.74904 | 41163 ft | 490 kts | 96° |
| 2026-04-25 21:11 | 46.24032 | -0.65137 | 41163 ft | 490 kts | 96° |
| 2026-04-25 21:12 | 46.23194 | -0.55353 | 41160 ft | 490 kts | 96° |
| 2026-04-25 21:12 | 46.22492 | -0.47231 | 41170 ft | 490 kts | 96° |
| 2026-04-25 21:13 | 46.21494 | -0.35812 | 41174 ft | 490 kts | 97° |
| 2026-04-25 21:13 | 46.20638 | -0.26116 | 41175 ft | 490 kts | 97° |
| 2026-04-25 21:14 | 46.19768 | -0.16359 | 41161 ft | 491 kts | 97° |
| 2026-04-25 21:14 | 46.18888 | -0.06578 | 41164 ft | 491 kts | 97° |
| 2026-04-25 21:15 | 46.18000 | 0.03187 | 41172 ft | 491 kts | 97° |
| 2026-04-25 21:15 | 46.17104 | 0.12951 | 41162 ft | 491 kts | 97° |
| 2026-04-25 21:16 | 46.16199 | 0.22709 | 41179 ft | 491 kts | 97° |
| 2026-04-25 21:16 | 46.15286 | 0.32464 | 41164 ft | 491 kts | 97° |
| 2026-04-25 21:17 | 46.14363 | 0.42243 | 41174 ft | 491 kts | 97° |
| 2026-04-25 21:17 | 46.13430 | 0.52023 | 41162 ft | 492 kts | 97° |
| 2026-04-25 21:18 | 46.12491 | 0.61785 | 41167 ft | 492 kts | 97° |
| 2026-04-25 21:18 | 46.11544 | 0.71543 | 41167 ft | 492 kts | 97° |
| 2026-04-25 21:19 | 46.10587 | 0.81309 | 41168 ft | 492 kts | 98° |
| 2026-04-25 21:19 | 46.09621 | 0.91072 | 41165 ft | 492 kts | 98° |
| 2026-04-25 21:20 | 46.08978 | 0.97530 | 41175 ft | 492 kts | 98° |
| 2026-04-25 21:20 | 46.07833 | 1.08935 | 41180 ft | 492 kts | 98° |
| 2026-04-25 21:21 | 46.06676 | 1.20338 | 41174 ft | 493 kts | 98° |
| 2026-04-25 21:21 | 46.05846 | 1.28446 | 41172 ft | 493 kts | 98° |
| 2026-04-25 21:22 | 46.04838 | 1.38216 | 41174 ft | 493 kts | 98° |
| 2026-04-25 21:22 | 46.03823 | 1.47975 | 41173 ft | 493 kts | 98° |
| 2026-04-25 21:23 | 46.02800 | 1.57726 | 41172 ft | 493 kts | 98° |
| 2026-04-25 21:23 | 46.01767 | 1.67489 | 41168 ft | 493 kts | 98° |
| 2026-04-25 21:24 | 46.00726 | 1.77240 | 41160 ft | 493 kts | 98° |
| 2026-04-25 21:24 | 45.99677 | 1.86992 | 41157 ft | 493 kts | 99° |
| 2026-04-25 21:25 | 45.98618 | 1.96743 | 41156 ft | 493 kts | 99° |
| 2026-04-25 21:25 | 45.97553 | 2.06481 | 41158 ft | 493 kts | 99° |
| 2026-04-25 21:26 | 45.96478 | 2.16227 | 41165 ft | 493 kts | 99° |
| 2026-04-25 21:26 | 45.95396 | 2.25959 | 41163 ft | 493 kts | 99° |
| 2026-04-25 21:27 | 45.94306 | 2.35690 | 41167 ft | 493 kts | 99° |
| 2026-04-25 21:27 | 45.93214 | 2.45358 | 41159 ft | 493 kts | 99° |
| 2026-04-25 21:28 | 45.92099 | 2.55150 | 41153 ft | 493 kts | 99° |
| 2026-04-25 21:28 | 45.90991 | 2.64802 | 41160 ft | 493 kts | 99° |
| 2026-04-25 21:29 | 45.89869 | 2.74508 | 41153 ft | 493 kts | 99° |
| 2026-04-25 21:29 | 45.88740 | 2.84201 | 41155 ft | 493 kts | 99° |
| 2026-04-25 21:30 | 45.87601 | 2.93896 | 41153 ft | 492 kts | 99° |
| 2026-04-25 21:30 | 45.86642 | 3.02011 | 41151 ft | 492 kts | 100° |
| 2026-04-25 21:31 | 45.85303 | 3.13246 | 41159 ft | 492 kts | 100° |
| 2026-04-25 21:31 | 45.84141 | 3.22925 | 41162 ft | 491 kts | 100° |
| 2026-04-25 21:32 | 45.82973 | 3.32572 | 41159 ft | 491 kts | 100° |
| 2026-04-25 21:32 | 45.81797 | 3.42227 | 41154 ft | 491 kts | 100° |
| 2026-04-25 21:33 | 45.80614 | 3.51862 | 41153 ft | 491 kts | 100° |
| 2026-04-25 21:33 | 45.79429 | 3.61440 | 41144 ft | 491 kts | 100° |
| 2026-04-25 21:34 | 45.78227 | 3.71086 | 41147 ft | 492 kts | 100° |
| 2026-04-25 21:34 | 45.77009 | 3.80800 | 41145 ft | 492 kts | 100° |
| 2026-04-25 21:35 | 45.75792 | 3.90433 | 41150 ft | 492 kts | 101° |
| 2026-04-25 21:35 | 45.74565 | 4.00073 | 41163 ft | 492 kts | 101° |
| 2026-04-25 21:36 | 45.73337 | 4.09650 | 41144 ft | 492 kts | 101° |
| 2026-04-25 21:36 | 45.72095 | 4.19278 | 41145 ft | 492 kts | 101° |
| 2026-04-25 21:37 | 45.71049 | 4.27330 | 41159 ft | 492 kts | 101° |
| 2026-04-25 21:37 | 45.69587 | 4.38510 | 41148 ft | 492 kts | 101° |
| 2026-04-25 21:38 | 45.68320 | 4.48133 | 41160 ft | 492 kts | 101° |
| 2026-04-25 21:38 | 45.67045 | 4.57743 | 41137 ft | 492 kts | 101° |
| 2026-04-25 21:39 | 45.65763 | 4.67343 | 41139 ft | 491 kts | 101° |
| 2026-04-25 21:39 | 45.64474 | 4.76933 | 41136 ft | 491 kts | 101° |
| 2026-04-25 21:40 | 45.63177 | 4.86517 | 41123 ft | 491 kts | 101° |
| 2026-04-25 21:40 | 45.61875 | 4.96076 | 41126 ft | 491 kts | 101° |
| 2026-04-25 21:41 | 45.60562 | 5.05645 | 41132 ft | 490 kts | 101° |
| 2026-04-25 21:41 | 45.59246 | 5.15183 | 41131 ft | 490 kts | 101° |
| 2026-04-25 21:42 | 45.57918 | 5.24740 | 41128 ft | 490 kts | 102° |
| 2026-04-25 21:42 | 45.56586 | 5.34265 | 41130 ft | 490 kts | 102° |
| 2026-04-25 21:43 | 45.55245 | 5.43799 | 41129 ft | 489 kts | 102° |
| 2026-04-25 21:43 | 45.53897 | 5.53317 | 41116 ft | 489 kts | 102° |
| 2026-04-25 21:44 | 45.52541 | 5.62833 | 41111 ft | 489 kts | 102° |
| 2026-04-25 21:45 | 45.50503 | 5.77024 | 41113 ft | 489 kts | 102° |
| 2026-04-25 21:45 | 45.49122 | 5.86574 | 41118 ft | 489 kts | 102° |
| 2026-04-25 21:46 | 45.47747 | 5.96020 | 41102 ft | 489 kts | 102° |
| 2026-04-25 21:46 | 45.46153 | 6.05394 | 40872 ft | 485 kts | 105° |
| 2026-04-25 21:46 | 45.45280 | 6.10024 | 40474 ft | 482 kts | 105° |
| 2026-04-25 21:47 | 45.44410 | 6.14625 | 39960 ft | 479 kts | 105° |
| 2026-04-25 21:47 | 45.43592 | 6.19003 | 39542 ft | 476 kts | 105° |
| 2026-04-25 21:47 | 45.42783 | 6.23399 | 39147 ft | 472 kts | 105° |
| 2026-04-25 21:47 | 45.41962 | 6.27889 | 38794 ft | 467 kts | 105° |
| 2026-04-25 21:48 | 45.41148 | 6.32348 | 38329 ft | 463 kts | 105° |
| 2026-04-25 21:48 | 45.40339 | 6.36766 | 37866 ft | 459 kts | 105° |
| 2026-04-25 21:48 | 45.39534 | 6.41144 | 37412 ft | 456 kts | 105° |
| 2026-04-25 21:48 | 45.38683 | 6.45478 | 36962 ft | 452 kts | 108° |
| 2026-04-25 21:49 | 45.37661 | 6.49723 | 36045 ft | 458 kts | 110° |
| 2026-04-25 21:49 | 45.36564 | 6.54061 | 34660 ft | 476 kts | 110° |
| 2026-04-25 21:49 | 45.35406 | 6.58580 | 33068 ft | 494 kts | 110° |
| 2026-04-25 21:49 | 45.34220 | 6.63225 | 31837 ft | 502 kts | 110° |
| 2026-04-25 21:50 | 45.33038 | 6.67890 | 30954 ft | 501 kts | 110° |
| 2026-04-25 21:50 | 45.31873 | 6.72516 | 30395 ft | 500 kts | 110° |
| 2026-04-25 21:50 | 45.30698 | 6.77192 | 30218 ft | 503 kts | 110° |
| 2026-04-25 21:50 | 45.29918 | 6.80290 | 30104 ft | 504 kts | 110° |
| 2026-04-25 21:51 | 45.28329 | 6.86543 | 29986 ft | 500 kts | 111° |
| 2026-04-25 21:51 | 45.26761 | 6.90955 | 29737 ft | 503 kts | 124° |
| 2026-04-25 21:51 | 45.24518 | 6.94749 | 29601 ft | 502 kts | 137° |
| 2026-04-25 21:51 | 45.21810 | 6.97844 | 29514 ft | 493 kts | 148° |
| 2026-04-25 21:52 | 45.18841 | 7.00215 | 28589 ft | 494 kts | 153° |
| 2026-04-25 21:52 | 45.15718 | 7.02483 | 27787 ft | 510 kts | 153° |
| 2026-04-25 21:52 | 45.12565 | 7.04792 | 27483 ft | 509 kts | 153° |
| 2026-04-25 21:52 | 45.09484 | 7.07127 | 26995 ft | 494 kts | 152° |
| 2026-04-25 21:53 | 45.06562 | 7.09391 | 26141 ft | 466 kts | 151° |
| 2026-04-25 21:53 | 45.03734 | 7.11596 | 25056 ft | 462 kts | 150° |
| 2026-04-25 21:53 | 45.01184 | 7.14277 | 24133 ft | 456 kts | 133° |
| 2026-04-25 21:53 | 44.99404 | 7.17834 | 23254 ft | 448 kts | 115° |
| 2026-04-25 21:54 | 44.98297 | 7.21961 | 22340 ft | 439 kts | 102° |
| 2026-04-25 21:54 | 44.97928 | 7.26125 | 21446 ft | 431 kts | 88° |
| 2026-04-25 21:54 | 44.98035 | 7.30379 | 20697 ft | 435 kts | 85° |
| 2026-04-25 21:54 | 44.98129 | 7.34613 | 20421 ft | 430 kts | 87° |
| 2026-04-25 21:55 | 44.98171 | 7.38852 | 20229 ft | 430 kts | 88° |
| 2026-04-25 21:55 | 44.98113 | 7.43047 | 20133 ft | 425 kts | 91° |
| 2026-04-25 21:55 | 44.97940 | 7.47199 | 19848 ft | 422 kts | 91° |
| 2026-04-25 21:55 | 44.97754 | 7.51337 | 19455 ft | 423 kts | 91° |
| 2026-04-25 21:56 | 44.97565 | 7.55488 | 19074 ft | 423 kts | 91° |
| 2026-04-25 21:56 | 44.97441 | 7.58226 | 18800 ft | 422 kts | 91° |
| 2026-04-25 21:56 | 44.97194 | 7.63750 | 18420 ft | 419 kts | 91° |
| 2026-04-25 21:56 | 44.97013 | 7.67844 | 18119 ft | 417 kts | 91° |
| 2026-04-25 21:57 | 44.96833 | 7.71927 | 17866 ft | 414 kts | 91° |
| 2026-04-25 21:57 | 44.96649 | 7.75929 | 17814 ft | 404 kts | 92° |
| 2026-04-25 21:57 | 44.96175 | 7.79792 | 17714 ft | 391 kts | 104° |
| 2026-04-25 21:57 | 44.95209 | 7.83276 | 17566 ft | 375 kts | 117° |
| 2026-04-25 21:58 | 44.93715 | 7.86209 | 17465 ft | 362 kts | 133° |
| 2026-04-25 21:58 | 44.91853 | 7.88510 | 17363 ft | 351 kts | 141° |
| 2026-04-25 21:58 | 44.89930 | 7.90554 | 17225 ft | 342 kts | 142° |
| 2026-04-25 21:58 | 44.88031 | 7.92541 | 17014 ft | 336 kts | 137° |
| 2026-04-25 21:59 | 44.86579 | 7.95116 | 16840 ft | 337 kts | 113° |
| 2026-04-25 21:59 | 44.85971 | 7.98227 | 16839 ft | 328 kts | 90° |
| 2026-04-25 21:59 | 44.86092 | 8.01397 | 16827 ft | 321 kts | 79° |
| 2026-04-25 22:00 | 44.87250 | 8.07397 | 16744 ft | 316 kts | 68° |
| 2026-04-25 22:00 | 44.87994 | 8.10364 | 16738 ft | 323 kts | 68° |
| 2026-04-25 22:00 | 44.88745 | 8.13309 | 16481 ft | 324 kts | 67° |
| 2026-04-25 22:00 | 44.89507 | 8.16272 | 16228 ft | 319 kts | 67° |
| 2026-04-25 22:01 | 44.90336 | 8.19119 | 15927 ft | 310 kts | 60° |
| 2026-04-25 22:01 | 44.91308 | 8.21817 | 15548 ft | 309 kts | 63° |
| 2026-04-25 22:01 | 44.92150 | 8.24592 | 15162 ft | 302 kts | 60° |
| 2026-04-25 22:01 | 44.92859 | 8.26280 | 14837 ft | 303 kts | 54° |
| 2026-04-25 22:02 | 44.94513 | 8.29486 | 14368 ft | 300 kts | 51° |
| 2026-04-25 22:02 | 44.95763 | 8.31830 | 14039 ft | 295 kts | 52° |
| 2026-04-25 22:02 | 44.96969 | 8.34129 | 13441 ft | 290 kts | 52° |
| 2026-04-25 22:02 | 44.98155 | 8.36429 | 12667 ft | 291 kts | 53° |
| 2026-04-25 22:03 | 44.99326 | 8.38732 | 12059 ft | 282 kts | 53° |
| 2026-04-25 22:03 | 45.00441 | 8.40943 | 11434 ft | 270 kts | 53° |
| 2026-04-25 22:03 | 45.01513 | 8.43081 | 10798 ft | 267 kts | 53° |
| 2026-04-25 22:03 | 45.02590 | 8.45231 | 10448 ft | 267 kts | 53° |
| 2026-04-25 22:04 | 45.03655 | 8.47362 | 10235 ft | 262 kts | 53° |
| 2026-04-25 22:04 | 45.04724 | 8.49408 | 9965 ft | 255 kts | 45° |
| 2026-04-25 22:04 | 45.06259 | 8.50625 | 9429 ft | 258 kts | 9° |
| 2026-04-25 22:04 | 45.08033 | 8.50858 | 8994 ft | 257 kts | 5° |
| 2026-04-25 22:05 | 45.09812 | 8.51102 | 8683 ft | 256 kts | 6° |
| 2026-04-25 22:05 | 45.11574 | 8.51371 | 8438 ft | 253 kts | 6° |
| 2026-04-25 22:05 | 45.13313 | 8.51649 | 8154 ft | 252 kts | 6° |
| 2026-04-25 22:05 | 45.15052 | 8.51935 | 7853 ft | 251 kts | 6° |
| 2026-04-25 22:06 | 45.16760 | 8.52221 | 7571 ft | 251 kts | 6° |
| 2026-04-25 22:06 | 45.18494 | 8.52513 | 7272 ft | 250 kts | 7° |
| 2026-04-25 22:06 | 45.20213 | 8.52803 | 7012 ft | 249 kts | 7° |
| 2026-04-25 22:06 | 45.21372 | 8.52965 | 6816 ft | 245 kts | 1° |
| 2026-04-25 22:07 | 45.23628 | 8.52512 | 6320 ft | 248 kts | 348° |
| 2026-04-25 22:07 | 45.24760 | 8.52156 | 6185 ft | 245 kts | 348° |
| 2026-04-25 22:07 | 45.26972 | 8.51487 | 5752 ft | 246 kts | 348° |
| 2026-04-25 22:07 | 45.28102 | 8.51158 | 5617 ft | 244 kts | 349° |
| 2026-04-25 22:08 | 45.29093 | 8.50875 | 5545 ft | 239 kts | 349° |
| 2026-04-25 22:08 | 45.30405 | 8.50574 | 5402 ft | 229 kts | 0° |
| 2026-04-25 22:08 | 45.31927 | 8.51181 | 5088 ft | 229 kts | 34° |
| 2026-04-25 22:09 | 45.32995 | 8.52805 | 4833 ft | 229 kts | 58° |
| 2026-04-25 22:09 | 45.33581 | 8.54908 | 4538 ft | 228 kts | 76° |
| 2026-04-25 22:09 | 45.33887 | 8.57117 | 4279 ft | 225 kts | 79° |
| 2026-04-25 22:09 | 45.34162 | 8.59267 | 4023 ft | 224 kts | 79° |
| 2026-04-25 22:10 | 45.34447 | 8.61440 | 3743 ft | 223 kts | 78° |
| 2026-04-25 22:10 | 45.34711 | 8.63607 | 3464 ft | 223 kts | 79° |
| 2026-04-25 22:10 | 45.34972 | 8.65767 | 3245 ft | 220 kts | 79° |
| 2026-04-25 22:10 | 45.35235 | 8.67900 | 2929 ft | 220 kts | 79° |
| 2026-04-25 22:11 | 45.35503 | 8.70049 | 2581 ft | 221 kts | 79° |
| 2026-04-25 22:11 | 45.35772 | 8.72163 | 2520 ft | 215 kts | 79° |
| 2026-04-25 22:11 | 45.36040 | 8.74259 | 2499 ft | 219 kts | 79° |
| 2026-04-25 22:11 | 45.36367 | 8.76378 | 2485 ft | 220 kts | 68° |
| 2026-04-25 22:12 | 45.37304 | 8.78078 | 2491 ft | 223 kts | 34° |
| 2026-04-25 22:12 | 45.38706 | 8.78913 | 2488 ft | 213 kts | 15° |
| 2026-04-25 22:12 | 45.40095 | 8.79339 | 2467 ft | 196 kts | 0° |
| 2026-04-25 22:12 | 45.40976 | 8.79262 | 2483 ft | 191 kts | 353° |
| 2026-04-25 22:13 | 45.42728 | 8.78909 | 2497 ft | 186 kts | 349° |
| 2026-04-25 22:13 | 45.43985 | 8.78586 | 2518 ft | 184 kts | 348° |
| 2026-04-25 22:13 | 45.45156 | 8.78270 | 2520 ft | 187 kts | 348° |
| 2026-04-25 22:13 | 45.46444 | 8.77917 | 2523 ft | 189 kts | 348° |
| 2026-04-25 22:14 | 45.47725 | 8.77564 | 2528 ft | 187 kts | 348° |
| 2026-04-25 22:14 | 45.48959 | 8.77225 | 2511 ft | 175 kts | 347° |
| 2026-04-25 22:14 | 45.50124 | 8.76905 | 2501 ft | 166 kts | 347° |
| 2026-04-25 22:14 | 45.51250 | 8.76594 | 2512 ft | 166 kts | 347° |
| 2026-04-25 22:15 | 45.52389 | 8.76281 | 2523 ft | 167 kts | 347° |
| 2026-04-25 22:15 | 45.53545 | 8.75962 | 2355 ft | 171 kts | 347° |
| 2026-04-25 22:15 | 45.54682 | 8.75649 | 2128 ft | 161 kts | 347° |
| 2026-04-25 22:16 | 45.56657 | 8.75105 | 1715 ft | 136 kts | 346° |
| 2026-04-25 22:16 | 45.57604 | 8.74843 | 1544 ft | 141 kts | 347° |
| 2026-04-25 22:16 | 45.58436 | 8.74614 | 1367 ft | 135 kts | 347° |
| 2026-04-25 22:16 | 45.59351 | 8.74361 | 1189 ft | 130 kts | 348° |
| 2026-04-25 22:17 | 45.60255 | 8.74112 | 1037 ft | 135 kts | 348° |
| 2026-04-25 22:17 | 45.61162 | 8.73860 | 852 ft | 131 kts | 349° |
| 2026-04-25 22:17 | 45.62055 | 8.73619 | 747 ft | 124 kts | 348° |
| 2026-04-25 22:17 | 45.62805 | 8.73410 | 740 ft | 93 kts | 349° |
| 2026-04-25 22:18 | 45.63323 | 8.73266 | 739 ft | 58 kts | 349° |
| 2026-04-25 22:18 | 45.63601 | 8.73169 | 741 ft | 29 kts | 336° |
| 2026-04-25 22:18 | 45.63778 | 8.72983 | 738 ft | 31 kts | 311° |
| 2026-04-25 22:18 | 45.63843 | 8.72856 | 739 ft | 8 kts | 304° |
| 2026-04-25 22:19 | 45.63873 | 8.72793 | 737 ft | 8 kts | 304° |
| 2026-04-25 22:19 | 45.63903 | 8.72731 | 740 ft | 10 kts | 304° |
| 2026-04-25 22:19 | 45.63947 | 8.72629 | 740 ft | 12 kts | 293° |
| 2026-04-25 22:19 | 45.63948 | 8.72506 | 739 ft | 14 kts | 259° |
| 2026-04-25 22:20 | 45.63931 | 8.72381 | 740 ft | 7 kts | 259° |
| 2026-04-25 22:20 | 45.63920 | 8.72271 | 741 ft | 18 kts | 265° |
| 2026-04-25 22:20 | 45.63912 | 8.72092 | 740 ft | 18 kts | 267° |
| 2026-04-25 22:20 | 45.63897 | 8.71921 | 741 ft | 16 kts | 256° |
| 2026-04-25 22:21 | 45.63823 | 8.71827 | 739 ft | 15 kts | 187° |
| 2026-04-25 22:21 | 45.63724 | 8.71850 | 741 ft | 14 kts | 170° |
| 2026-04-25 22:21 | 45.63628 | 8.71873 | 740 ft | 14 kts | 170° |
| 2026-04-25 22:21 | 45.63532 | 8.71900 | 738 ft | 14 kts | 168° |
| 2026-04-25 22:22 | 45.63445 | 8.71923 | 740 ft | 10 kts | 169° |
| 2026-04-25 22:22 | 45.63412 | 8.71932 | 740 ft | 2 kts | 169° |
| 2026-04-25 22:22 | 45.63408 | 8.71933 | 740 ft | 0 kts | 169° |
| 2026-04-25 22:23 | 45.63367 | 8.71943 | 740 ft | 9 kts | 172° |
| 2026-04-25 22:23 | 45.63319 | 8.71915 | 739 ft | 7 kts | 230° |
| 2026-04-25 22:23 | 45.63313 | 8.71899 | 740 ft | 0 kts | 243° |
| 2026-04-25 22:25 | 45.63301 | 8.71840 | 739 ft | 7 kts | 256° |
| 2026-04-25 22:25 | 45.63290 | 8.71767 | 741 ft | 7 kts | 258° |
| 2026-04-25 22:25 | 45.63279 | 8.71694 | 740 ft | 7 kts | 259° |
| 2026-04-25 22:25 | 45.63270 | 8.71621 | 740 ft | 7 kts | 259° |
| 2026-04-25 22:26 | 45.63260 | 8.71548 | 740 ft | 7 kts | 259° |
| 2026-04-25 22:26 | 45.63259 | 8.71539 | 737 ft | 1 kts | 259° |
| 2026-04-25 22:26 | 45.63256 | 8.71523 | 739 ft | 2 kts | 253° |
| 2026-04-25 22:26 | 45.63243 | 8.71498 | 739 ft | 5 kts | 222° |
| 2026-04-25 22:27 | 45.63218 | 8.71481 | 740 ft | 3 kts | 203° |
| 2026-04-25 22:27 | 45.63199 | 8.71470 | 740 ft | 2 kts | 201° |
| 2026-04-25 22:27 | 45.63183 | 8.71462 | 740 ft | 2 kts | 199° |
| 2026-04-25 22:27 | 45.63175 | 8.71458 | 740 ft | 0 kts | 198° |
| 2026-04-25 22:28 | 45.63180 | 8.71461 | 740 ft | 0 kts | 198° |
| 2026-04-25 22:28 | 45.63180 | 8.71460 | 740 ft | 0 kts | 198° |
| 2026-04-25 22:28 | 45.63178 | 8.71460 | 740 ft | 0 kts | 199° |